Wetterdaten: Montag, 30.03.2020
Datum Zeit Temp. Aussen Temp. o. S. Temp +5cm Feuchte Auss Luftdruck Regen Sonnenschein Regendauer Solar Windben Empfang
30.03.2020 00:00 1,1 C 0,0 C -0,6 C 61 % 1034,1 hPa 0,0 l/m 0 min 0 min 0 W/m 16,1 km/h (3 Bft) 97,87 %
30.03.2020 00:02 1,1 C 0,0 C -0,6 C 61 % 1034,1 hPa 0,0 l/m 0 min 0 min 0 W/m 3,2 km/h (1 Bft) 12,50 %
30.03.2020 00:04 1,0 C 0,0 C -0,6 C 62 % 1034,2 hPa 0,0 l/m 0 min 0 min 0 W/m 6,4 km/h (2 Bft) 71,88 %
30.03.2020 00:08 0,9 C 0,0 C -0,6 C 62 % 1034,1 hPa 0,0 l/m 0 min 0 min 0 W/m 0,0 km/h (0 Bft) 95,74 %
30.03.2020 00:10 0,9 C 0,0 C -0,6 C 62 % 1034,2 hPa 0,0 l/m 0 min 0 min 0 W/m 9,7 km/h (2 Bft) 97,87 %
30.03.2020 00:12 0,9 C 0,0 C -0,6 C 62 % 1034,2 hPa 0,0 l/m 0 min 0 min 0 W/m 6,4 km/h (2 Bft) 97,87 %
30.03.2020 00:14 0,9 C 0,0 C -0,6 C 62 % 1034,2 hPa 0,0 l/m 0 min 0 min 0 W/m 9,7 km/h (2 Bft) 85,11 %
30.03.2020 00:16 0,8 C 0,0 C -0,6 C 62 % 1034,2 hPa 0,0 l/m 0 min 0 min 0 W/m 12,9 km/h (3 Bft) 66,67 %
30.03.2020 00:18 0,8 C 0,0 C -0,6 C 62 % 1034,2 hPa 0,0 l/m 0 min 0 min 0 W/m 0,0 km/h (0 Bft) 95,74 %
30.03.2020 00:20 0,8 C -0,6 C -1,1 C 62 % 1034,2 hPa 0,0 l/m 0 min 0 min 0 W/m 0,0 km/h (0 Bft) 93,62 %
30.03.2020 00:22 0,7 C -0,6 C -1,1 C 62 % 1034,2 hPa 0,0 l/m 0 min 0 min 0 W/m 0,0 km/h (0 Bft) 97,87 %
30.03.2020 00:24 0,7 C 0,0 C -1,1 C 62 % 1034,2 hPa 0,0 l/m 0 min 0 min 0 W/m 0,0 km/h (0 Bft) 97,87 %
30.03.2020 00:26 0,7 C -0,6 C -1,1 C 62 % 1034,2 hPa 0,0 l/m 0 min 0 min 0 W/m 0,0 km/h (0 Bft) 95,65 %
30.03.2020 00:28 0,6 C -0,6 C -1,1 C 62 % 1034,2 hPa 0,0 l/m 0 min 0 min 0 W/m 3,2 km/h (1 Bft) 95,74 %
30.03.2020 00:30 0,6 C -0,6 C -1,1 C 62 % 1034,2 hPa 0,0 l/m 0 min 0 min 0 W/m 0,0 km/h (0 Bft) 97,87 %
30.03.2020 00:32 0,6 C -0,6 C -1,1 C 62 % 1034,3 hPa 0,0 l/m 0 min 0 min 0 W/m 0,0 km/h (0 Bft) 97,87 %
30.03.2020 00:34 0,6 C -0,6 C -1,7 C 62 % 1034,2 hPa 0,0 l/m 0 min 0 min 0 W/m 0,0 km/h (0 Bft) 95,74 %
30.03.2020 00:36 0,6 C -0,6 C -1,7 C 62 % 1034,2 hPa 0,0 l/m 0 min 0 min 0 W/m 3,2 km/h (1 Bft) 95,74 %
30.03.2020 00:38 0,6 C -0,6 C -1,7 C 62 % 1034,2 hPa 0,0 l/m 0 min 0 min 0 W/m 6,4 km/h (2 Bft) 95,65 %
30.03.2020 00:40 0,6 C -0,6 C -1,7 C 62 % 1034,1 hPa 0,0 l/m 0 min 0 min 0 W/m 3,2 km/h (1 Bft) 95,74 %
30.03.2020 00:42 0,6 C -1,1 C -1,7 C 62 % 1034,2 hPa 0,0 l/m 0 min 0 min 0 W/m 0,0 km/h (0 Bft) 93,62 %
30.03.2020 00:44 0,5 C -1,1 C -1,7 C 62 % 1034,2 hPa 0,0 l/m 0 min 0 min 0 W/m 0,0 km/h (0 Bft) 95,74 %
30.03.2020 00:46 0,5 C -1,1 C -1,7 C 62 % 1034,2 hPa 0,0 l/m 0 min 0 min 0 W/m 0,0 km/h (0 Bft) 95,74 %
30.03.2020 00:48 0,4 C -1,1 C -1,7 C 62 % 1034,2 hPa 0,0 l/m 0 min 0 min 0 W/m 0,0 km/h (0 Bft) 97,87 %
30.03.2020 00:50 0,4 C -1,1 C -2,2 C 62 % 1034,2 hPa 0,0 l/m 0 min 0 min 0 W/m 0,0 km/h (0 Bft) 97,83 %
30.03.2020 00:52 0,4 C -1,1 C -2,2 C 63 % 1034,2 hPa 0,0 l/m 0 min 0 min 0 W/m 0,0 km/h (0 Bft) 100,00 %
30.03.2020 00:54 0,3 C -1,1 C -2,2 C 63 % 1034,3 hPa 0,0 l/m 0 min 0 min 0 W/m 0,0 km/h (0 Bft) 97,87 %
30.03.2020 00:56 0,3 C -1,1 C -2,2 C 63 % 1034,3 hPa 0,0 l/m 0 min 0 min 0 W/m 0,0 km/h (0 Bft) 95,74 %
30.03.2020 00:58 0,3 C -1,1 C -2,2 C 63 % 1034,3 hPa 0,0 l/m 0 min 0 min 0 W/m 0,0 km/h (0 Bft) 97,87 %
30.03.2020 01:00 0,2 C -1,7 C -2,2 C 63 % 1034,2 hPa 0,0 l/m 0 min 0 min 0 W/m 0,0 km/h (0 Bft) 97,87 %
30.03.2020 01:02 0,2 C -1,7 C -2,2 C 63 % 1034,2 hPa 0,0 l/m 0 min 0 min 0 W/m 0,0 km/h (0 Bft) 95,65 %
30.03.2020 01:04 0,2 C -1,1 C -2,2 C 63 % 1034,2 hPa 0,0 l/m 0 min 0 min 0 W/m 0,0 km/h (0 Bft) 97,87 %
30.03.2020 01:06 0,1 C -1,1 C -2,2 C 63 % 1034,1 hPa 0,0 l/m 0 min 0 min 0 W/m 0,0 km/h (0 Bft) 100,00 %
30.03.2020 01:08 0,1 C -1,1 C -2,2 C 63 % 1034,1 hPa 0,0 l/m 0 min 0 min 0 W/m 0,0 km/h (0 Bft) 100,00 %
30.03.2020 01:10 0,0 C -1,1 C -2,2 C 64 % 1034,2 hPa 0,0 l/m 0 min 0 min 0 W/m 0,0 km/h (0 Bft) 100,00 %
30.03.2020 01:12 0,0 C -1,1 C -2,2 C 63 % 1034,2 hPa 0,0 l/m 0 min 0 min 0 W/m 0,0 km/h (0 Bft) 100,00 %
30.03.2020 01:14 -0,1 C -1,7 C -2,2 C 64 % 1034,2 hPa 0,0 l/m 0 min 0 min 0 W/m 0,0 km/h (0 Bft) 100,00 %
30.03.2020 01:16 -0,1 C -1,1 C -2,2 C 64 % 1034,1 hPa 0,0 l/m 0 min 0 min 0 W/m 0,0 km/h (0 Bft) 100,00 %
30.03.2020 01:18 -0,1 C -1,1 C -2,2 C 64 % 1034,1 hPa 0,0 l/m 0 min 0 min 0 W/m 0,0 km/h (0 Bft) 95,74 %
30.03.2020 01:20 -0,2 C -1,1 C -2,2 C 64 % 1034,1 hPa 0,0 l/m 0 min 0 min 0 W/m 0,0 km/h (0 Bft) 97,87 %
30.03.2020 01:22 -0,2 C -1,1 C -2,2 C 64 % 1034,1 hPa 0,0 l/m 0 min 0 min 0 W/m 0,0 km/h (0 Bft) 97,87 %
30.03.2020 01:24 -0,2 C -1,1 C -2,2 C 64 % 1034,1 hPa 0,0 l/m 0 min 0 min 0 W/m 0,0 km/h (0 Bft) 97,83 %
30.03.2020 01:26 -0,2 C -1,7 C -2,2 C 64 % 1034,1 hPa 0,0 l/m 0 min 0 min 0 W/m 0,0 km/h (0 Bft) 97,87 %
30.03.2020 01:28 -0,3 C -1,7 C -2,2 C 64 % 1034,1 hPa 0,0 l/m 0 min 0 min 0 W/m 0,0 km/h (0 Bft) 95,74 %
30.03.2020 01:30 -0,3 C -1,7 C -2,2 C 65 % 1034,1 hPa 0,0 l/m 0 min 0 min 0 W/m 0,0 km/h (0 Bft) 97,87 %
30.03.2020 01:32 -0,3 C -1,7 C -2,2 C 64 % 1034,1 hPa 0,0 l/m 0 min 0 min 0 W/m 0,0 km/h (0 Bft) 95,74 %
30.03.2020 01:34 -0,4 C -1,7 C -2,2 C 64 % 1034,1 hPa 0,0 l/m 0 min 0 min 0 W/m 9,7 km/h (2 Bft) 97,87 %
30.03.2020 01:36 -0,4 C -1,7 C -2,2 C 64 % 1034,2 hPa 0,0 l/m 0 min 0 min 0 W/m 6,4 km/h (2 Bft) 97,83 %
30.03.2020 01:38 -0,4 C -1,7 C -2,2 C 65 % 1034,2 hPa 0,0 l/m 0 min 0 min 0 W/m 0,0 km/h (0 Bft) 97,87 %
30.03.2020 01:40 -0,4 C -1,7 C -2,2 C 65 % 1034,1 hPa 0,0 l/m 0 min 0 min 0 W/m 0,0 km/h (0 Bft) 97,87 %
30.03.2020 01:42 -0,5 C -1,7 C -2,2 C 65 % 1034,1 hPa 0,0 l/m 0 min 0 min 0 W/m 0,0 km/h (0 Bft) 97,87 %
30.03.2020 01:44 -0,5 C -1,7 C -2,2 C 65 % 1034,1 hPa 0,0 l/m 0 min 0 min 0 W/m 0,0 km/h (0 Bft) 97,87 %
30.03.2020 01:46 -0,5 C -1,7 C -2,2 C 65 % 1034,1 hPa 0,0 l/m 0 min 0 min 0 W/m 0,0 km/h (0 Bft) 95,74 %
30.03.2020 01:48 -0,6 C -1,7 C -2,2 C 65 % 1034,2 hPa 0,0 l/m 0 min 0 min 0 W/m 0,0 km/h (0 Bft) 97,83 %
30.03.2020 01:50 -0,6 C -1,7 C -2,2 C 65 % 1034,1 hPa 0,0 l/m 0 min 0 min 0 W/m 0,0 km/h (0 Bft) 97,87 %
30.03.2020 01:52 -0,6 C -1,7 C -2,2 C 65 % 1034,1 hPa 0,0 l/m 0 min 0 min 0 W/m 0,0 km/h (0 Bft) 97,87 %
30.03.2020 01:54 -0,6 C -1,7 C -2,2 C 65 % 1034,1 hPa 0,0 l/m 0 min 0 min 0 W/m 0,0 km/h (0 Bft) 97,87 %
30.03.2020 01:56 -0,7 C -1,7 C -2,2 C 65 % 1034,1 hPa 0,0 l/m 0 min 0 min 0 W/m 0,0 km/h (0 Bft) 97,87 %
30.03.2020 01:58 -0,7 C -1,7 C -2,2 C 65 % 1034,2 hPa 0,0 l/m 0 min 0 min 0 W/m 0,0 km/h (0 Bft) 97,87 %
30.03.2020 02:00 -0,7 C -1,7 C -2,2 C 65 % 1034,2 hPa 0,0 l/m 0 min 0 min 0 W/m 3,2 km/h (1 Bft) 97,83 %
30.03.2020 02:02 -0,7 C -1,7 C -2,2 C 65 % 1034,1 hPa 0,0 l/m 0 min 0 min 0 W/m 6,4 km/h (2 Bft) 95,74 %
30.03.2020 02:04 -0,7 C -1,7 C -2,2 C 65 % 1034,1 hPa 0,0 l/m 0 min 0 min 0 W/m 0,0 km/h (0 Bft) 93,62 %
30.03.2020 02:06 -0,8 C -1,7 C -2,2 C 65 % 1034,1 hPa 0,0 l/m 0 min 0 min 0 W/m 0,0 km/h (0 Bft) 97,87 %
30.03.2020 02:08 -0,8 C -1,7 C -2,2 C 65 % 1034,1 hPa 0,0 l/m 0 min 0 min 0 W/m 0,0 km/h (0 Bft) 93,62 %
30.03.2020 02:10 -0,8 C -1,7 C -2,2 C 65 % 1034,1 hPa 0,0 l/m 0 min 0 min 0 W/m 0,0 km/h (0 Bft) 100,00 %
30.03.2020 02:12 -0,8 C -1,7 C -2,2 C 65 % 1034,1 hPa 0,0 l/m 0 min 0 min 0 W/m 0,0 km/h (0 Bft) 56,52 %
30.03.2020 02:14 -0,8 C -2,2 C -2,2 C 66 % 1034,0 hPa 0,0 l/m 0 min 0 min 0 W/m 0,0 km/h (0 Bft) 97,83 %
30.03.2020 02:16 -0,8 C -2,2 C -2,8 C 66 % 1034,0 hPa 0,0 l/m 0 min 0 min 0 W/m 0,0 km/h (0 Bft) 91,49 %
30.03.2020 02:18 -0,9 C -2,2 C -2,8 C 66 % 1034,1 hPa 0,0 l/m 0 min 0 min 0 W/m 0,0 km/h (0 Bft) 93,62 %
30.03.2020 02:20 -0,9 C -2,2 C -2,8 C 66 % 1034,1 hPa 0,0 l/m 0 min 0 min 0 W/m 0,0 km/h (0 Bft) 95,74 %
30.03.2020 02:22 -0,9 C -2,2 C -2,8 C 66 % 1034,1 hPa 0,0 l/m 0 min 0 min 0 W/m 0,0 km/h (0 Bft) 95,65 %
30.03.2020 02:24 -0,9 C -2,2 C -2,8 C 66 % 1034,1 hPa 0,0 l/m 0 min 0 min 0 W/m 0,0 km/h (0 Bft) 97,87 %
30.03.2020 02:26 -1,0 C -2,2 C -2,8 C 66 % 1034,1 hPa 0,0 l/m 0 min 0 min 0 W/m 0,0 km/h (0 Bft) 97,87 %
30.03.2020 02:28 -1,0 C -2,2 C -2,8 C 66 % 1034,1 hPa 0,0 l/m 0 min 0 min 0 W/m 0,0 km/h (0 Bft) 97,87 %
30.03.2020 02:30 -1,0 C -2,2 C -2,8 C 66 % 1034,1 hPa 0,0 l/m 0 min 0 min 0 W/m 0,0 km/h (0 Bft) 97,87 %
30.03.2020 02:32 -1,1 C -2,2 C -2,8 C 66 % 1034,0 hPa 0,0 l/m 0 min 0 min 0 W/m 0,0 km/h (0 Bft) 97,87 %
30.03.2020 02:34 -1,1 C -2,2 C -2,8 C 66 % 1034,1 hPa 0,0 l/m 0 min 0 min 0 W/m 0,0 km/h (0 Bft) 97,83 %
30.03.2020 02:36 -1,1 C -2,2 C -3,3 C 66 % 1034,1 hPa 0,0 l/m 0 min 0 min 0 W/m 0,0 km/h (0 Bft) 97,87 %
30.03.2020 02:38 -1,1 C -2,8 C -3,3 C 66 % 1034,1 hPa 0,0 l/m 0 min 0 min 0 W/m 0,0 km/h (0 Bft) 97,87 %
30.03.2020 02:40 -1,1 C -2,8 C -3,3 C 66 % 1034,1 hPa 0,0 l/m 0 min 0 min 0 W/m 0,0 km/h (0 Bft) 95,74 %
30.03.2020 02:42 -1,2 C -2,8 C -3,3 C 66 % 1034,1 hPa 0,0 l/m 0 min 0 min 0 W/m 0,0 km/h (0 Bft) 95,74 %
30.03.2020 02:44 -1,2 C -2,8 C -3,3 C 66 % 1034,1 hPa 0,0 l/m 0 min 0 min 0 W/m 0,0 km/h (0 Bft) 97,87 %
30.03.2020 02:46 -1,2 C -2,8 C -3,3 C 66 % 1034,1 hPa 0,0 l/m 0 min 0 min 0 W/m 0,0 km/h (0 Bft) 97,83 %
30.03.2020 02:48 -1,2 C -2,8 C -3,3 C 66 % 1034,1 hPa 0,0 l/m 0 min 0 min 0 W/m 0,0 km/h (0 Bft) 68,09 %
30.03.2020 02:50 -1,3 C -2,8 C -3,3 C 66 % 1034,1 hPa 0,0 l/m 0 min 0 min 0 W/m 0,0 km/h (0 Bft) 88,64 %
30.03.2020 02:52 -1,3 C -2,8 C -3,3 C 66 % 1034,1 hPa 0,0 l/m 0 min 0 min 0 W/m 0,0 km/h (0 Bft) 97,87 %
30.03.2020 02:54 -1,3 C -2,8 C -3,3 C 66 % 1034,0 hPa 0,0 l/m 0 min 0 min 0 W/m 0,0 km/h (0 Bft) 97,87 %
30.03.2020 02:56 -1,4 C -2,8 C -3,3 C 66 % 1034,1 hPa 0,0 l/m 0 min 0 min 0 W/m 0,0 km/h (0 Bft) 100,00 %
30.03.2020 02:58 -1,4 C -2,8 C -3,3 C 66 % 1034,1 hPa 0,0 l/m 0 min 0 min 0 W/m 0,0 km/h (0 Bft) 100,00 %
30.03.2020 03:00 -1,4 C -2,8 C -3,3 C 66 % 1034,0 hPa 0,0 l/m 0 min 0 min 0 W/m 0,0 km/h (0 Bft) 100,00 %
30.03.2020 03:02 -1,4 C -3,3 C -3,9 C 66 % 1034,0 hPa 0,0 l/m 0 min 0 min 0 W/m 0,0 km/h (0 Bft) 100,00 %
30.03.2020 03:04 -1,5 C -3,3 C -3,9 C 66 % 1034,0 hPa 0,0 l/m 0 min 0 min 0 W/m 0,0 km/h (0 Bft) 100,00 %
30.03.2020 03:06 -1,5 C -3,3 C -3,9 C 67 % 1034,0 hPa 0,0 l/m 0 min 0 min 0 W/m 0,0 km/h (0 Bft) 97,87 %
30.03.2020 03:08 -1,6 C -3,3 C -3,9 C 67 % 1034,0 hPa 0,0 l/m 0 min 0 min 0 W/m 0,0 km/h (0 Bft) 100,00 %
30.03.2020 03:10 -1,6 C -3,3 C -3,9 C 67 % 1034,0 hPa 0,0 l/m 0 min 0 min 0 W/m 0,0 km/h (0 Bft) 100,00 %
30.03.2020 03:12 -1,6 C -3,3 C -3,9 C 67 % 1034,0 hPa 0,0 l/m 0 min 0 min 0 W/m 0,0 km/h (0 Bft) 97,87 %
30.03.2020 03:14 -1,7 C -3,3 C -3,9 C 67 % 1033,9 hPa 0,0 l/m 0 min 0 min 0 W/m 0,0 km/h (0 Bft) 100,00 %
30.03.2020 03:16 -1,7 C -3,3 C -3,9 C 67 % 1034,0 hPa 0,0 l/m 0 min 0 min 0 W/m 0,0 km/h (0 Bft) 97,87 %
30.03.2020 03:18 -1,7 C -3,9 C -3,9 C 67 % 1034,0 hPa 0,0 l/m 0 min 0 min 0 W/m 0,0 km/h (0 Bft) 100,00 %
30.03.2020 03:20 -1,7 C -3,3 C -3,9 C 67 % 1034,0 hPa 0,0 l/m 0 min 0 min 0 W/m 0,0 km/h (0 Bft) 100,00 %
30.03.2020 03:22 -1,8 C -3,3 C -3,9 C 68 % 1034,0 hPa 0,0 l/m 0 min 0 min 0 W/m 0,0 km/h (0 Bft) 97,83 %
30.03.2020 03:24 -1,8 C -3,3 C -3,9 C 68 % 1033,9 hPa 0,0 l/m 0 min 0 min 0 W/m 0,0 km/h (0 Bft) 100,00 %
30.03.2020 03:26 -1,8 C -3,9 C -3,9 C 68 % 1033,9 hPa 0,0 l/m 0 min 0 min 0 W/m 0,0 km/h (0 Bft) 100,00 %
30.03.2020 03:28 -1,9 C -3,9 C -3,9 C 68 % 1033,9 hPa 0,0 l/m 0 min 0 min 0 W/m 0,0 km/h (0 Bft) 100,00 %
30.03.2020 03:30 -1,9 C -3,3 C -3,9 C 68 % 1033,9 hPa 0,0 l/m 0 min 0 min 0 W/m 0,0 km/h (0 Bft) 100,00 %
30.03.2020 03:32 -1,9 C -3,3 C -3,9 C 68 % 1033,9 hPa 0,0 l/m 0 min 0 min 0 W/m 0,0 km/h (0 Bft) 97,83 %
30.03.2020 03:34 -2,0 C -3,3 C -3,9 C 68 % 1033,8 hPa 0,0 l/m 0 min 0 min 0 W/m 0,0 km/h (0 Bft) 100,00 %
30.03.2020 03:36 -2,1 C -3,3 C -3,9 C 68 % 1033,8 hPa 0,0 l/m 0 min 0 min 0 W/m 0,0 km/h (0 Bft) 100,00 %
30.03.2020 03:38 -2,1 C -3,3 C -3,9 C 68 % 1033,8 hPa 0,0 l/m 0 min 0 min 0 W/m 0,0 km/h (0 Bft) 100,00 %
30.03.2020 03:40 -2,1 C -3,3 C -3,9 C 69 % 1033,8 hPa 0,0 l/m 0 min 0 min 0 W/m 0,0 km/h (0 Bft) 100,00 %
30.03.2020 03:42 -2,2 C -3,3 C -3,9 C 69 % 1033,8 hPa 0,0 l/m 0 min 0 min 0 W/m 0,0 km/h (0 Bft) 100,00 %
30.03.2020 03:44 -2,2 C -3,3 C -3,9 C 69 % 1033,8 hPa 0,0 l/m 0 min 0 min 0 W/m 0,0 km/h (0 Bft) 100,00 %
30.03.2020 03:46 -2,2 C -3,3 C -3,9 C 69 % 1033,8 hPa 0,0 l/m 0 min 0 min 0 W/m 0,0 km/h (0 Bft) 100,00 %
30.03.2020 03:48 -2,2 C -3,3 C -3,9 C 69 % 1033,8 hPa 0,0 l/m 0 min 0 min 0 W/m 0,0 km/h (0 Bft) 97,87 %
30.03.2020 03:50 -2,3 C -3,3 C -3,9 C 69 % 1033,7 hPa 0,0 l/m 0 min 0 min 0 W/m 0,0 km/h (0 Bft) 100,00 %
30.03.2020 03:52 -2,3 C -3,3 C -3,9 C 70 % 1033,8 hPa 0,0 l/m 0 min 0 min 0 W/m 0,0 km/h (0 Bft) 100,00 %
30.03.2020 03:54 -2,3 C -3,3 C -3,9 C 70 % 1033,7 hPa 0,0 l/m 0 min 0 min 0 W/m 0,0 km/h (0 Bft) 100,00 %
30.03.2020 03:56 -2,4 C -3,3 C -3,9 C 70 % 1033,7 hPa 0,0 l/m 0 min 0 min 0 W/m 0,0 km/h (0 Bft) 52,27 %
30.03.2020 03:58 -2,4 C -3,3 C -3,9 C 70 % 1033,8 hPa 0,0 l/m 0 min 0 min 0 W/m 0,0 km/h (0 Bft) 97,87 %
30.03.2020 04:00 -2,4 C -3,3 C -3,9 C 70 % 1033,7 hPa 0,0 l/m 0 min 0 min 0 W/m 3,2 km/h (1 Bft) 97,87 %
30.03.2020 04:05 -2,4 C -3,3 C -3,9 C 71 % 1033,6 hPa 0,0 l/m 0 min 0 min 0 W/m 0,0 km/h (0 Bft) 100,00 %
30.03.2020 04:06 -2,4 C -3,3 C -3,9 C 71 % 1033,6 hPa 0,0 l/m 0 min 0 min 0 W/m 0,0 km/h (0 Bft) 95,65 %
30.03.2020 04:08 -2,5 C -3,3 C -3,9 C 71 % 1033,6 hPa 0,0 l/m 0 min 0 min 0 W/m 0,0 km/h (0 Bft) 97,87 %
30.03.2020 04:10 -2,5 C -3,3 C -3,9 C 71 % 1033,6 hPa 0,0 l/m 0 min 0 min 0 W/m 0,0 km/h (0 Bft) 97,87 %
30.03.2020 04:12 -2,5 C -3,3 C -3,9 C 71 % 1033,6 hPa 0,0 l/m 0 min 0 min 0 W/m 0,0 km/h (0 Bft) 97,87 %
30.03.2020 04:14 -2,5 C -3,3 C -3,9 C 72 % 1033,5 hPa 0,0 l/m 0 min 0 min 0 W/m 0,0 km/h (0 Bft) 97,87 %
30.03.2020 04:16 -2,5 C -3,3 C -3,9 C 72 % 1033,5 hPa 0,0 l/m 0 min 0 min 0 W/m 6,4 km/h (2 Bft) 97,87 %
30.03.2020 04:18 -2,5 C -3,3 C -3,9 C 72 % 1033,5 hPa 0,0 l/m 0 min 0 min 0 W/m 3,2 km/h (1 Bft) 97,83 %
30.03.2020 04:20 -2,5 C -3,3 C -3,9 C 72 % 1033,5 hPa 0,0 l/m 0 min 0 min 0 W/m 3,2 km/h (1 Bft) 97,87 %
30.03.2020 04:22 -2,6 C -3,3 C -3,9 C 72 % 1033,4 hPa 0,0 l/m 0 min 0 min 0 W/m 0,0 km/h (0 Bft) 95,74 %
30.03.2020 04:24 -2,6 C -3,3 C -3,9 C 72 % 1033,4 hPa 0,0 l/m 0 min 0 min 0 W/m 0,0 km/h (0 Bft) 97,87 %
30.03.2020 04:26 -2,6 C -3,3 C -3,9 C 72 % 1033,5 hPa 0,0 l/m 0 min 0 min 0 W/m 0,0 km/h (0 Bft) 95,74 %
30.03.2020 04:28 -2,6 C -3,3 C -3,9 C 72 % 1033,4 hPa 0,0 l/m 0 min 0 min 0 W/m 0,0 km/h (0 Bft) 48,72 %
30.03.2020 04:30 -2,6 C -3,3 C -3,9 C 72 % 1033,4 hPa 0,0 l/m 0 min 0 min 0 W/m 0,0 km/h (0 Bft) 97,78 %
30.03.2020 04:32 -2,6 C -3,3 C -3,9 C 72 % 1033,4 hPa 0,0 l/m 0 min 0 min 0 W/m 0,0 km/h (0 Bft) 97,87 %
30.03.2020 04:34 -2,6 C -3,3 C -3,9 C 72 % 1033,4 hPa 0,0 l/m 0 min 0 min 0 W/m 0,0 km/h (0 Bft) 97,87 %
30.03.2020 04:36 -2,6 C -3,3 C -3,9 C 72 % 1033,4 hPa 0,0 l/m 0 min 0 min 0 W/m 0,0 km/h (0 Bft) 93,62 %
30.03.2020 04:38 -2,6 C -3,3 C -3,9 C 72 % 1033,4 hPa 0,0 l/m 0 min 0 min 0 W/m 0,0 km/h (0 Bft) 95,74 %
30.03.2020 04:40 -2,7 C -3,3 C -3,9 C 73 % 1033,4 hPa 0,0 l/m 0 min 0 min 0 W/m 0,0 km/h (0 Bft) 93,62 %
30.03.2020 04:42 -2,7 C -3,3 C -3,9 C 73 % 1033,3 hPa 0,0 l/m 0 min 0 min 0 W/m 0,0 km/h (0 Bft) 93,48 %
30.03.2020 04:44 -2,7 C -3,9 C -3,9 C 73 % 1033,4 hPa 0,0 l/m 0 min 0 min 0 W/m 0,0 km/h (0 Bft) 95,74 %
30.03.2020 04:46 -2,7 C -3,9 C -3,9 C 73 % 1033,4 hPa 0,0 l/m 0 min 0 min 0 W/m 0,0 km/h (0 Bft) 95,74 %
30.03.2020 04:48 -2,7 C -3,9 C -4,4 C 73 % 1033,4 hPa 0,0 l/m 0 min 0 min 0 W/m 0,0 km/h (0 Bft) 93,62 %
30.03.2020 04:50 -2,7 C -3,9 C -4,4 C 73 % 1033,4 hPa 0,0 l/m 0 min 0 min 0 W/m 0,0 km/h (0 Bft) 95,74 %
30.03.2020 04:52 -2,7 C -3,9 C -4,4 C 73 % 1033,5 hPa 0,0 l/m 0 min 0 min 0 W/m 0,0 km/h (0 Bft) 95,74 %
30.03.2020 04:54 -2,7 C -3,9 C -4,4 C 73 % 1033,4 hPa 0,0 l/m 0 min 0 min 0 W/m 0,0 km/h (0 Bft) 95,65 %
30.03.2020 04:56 -2,7 C -3,9 C -4,4 C 73 % 1033,4 hPa 0,0 l/m 0 min 0 min 0 W/m 0,0 km/h (0 Bft) 97,87 %
30.03.2020 04:58 -2,7 C -3,9 C -4,4 C 73 % 1033,4 hPa 0,0 l/m 0 min 0 min 0 W/m 0,0 km/h (0 Bft) 93,62 %
30.03.2020 05:00 -2,7 C -3,9 C -4,4 C 73 % 1033,3 hPa 0,0 l/m 0 min 0 min 0 W/m 0,0 km/h (0 Bft) 68,09 %
30.03.2020 05:02 -2,8 C -3,9 C -4,4 C 73 % 1033,4 hPa 0,0 l/m 0 min 0 min 0 W/m 0,0 km/h (0 Bft) 77,78 %
30.03.2020 05:04 -2,8 C -3,9 C -4,4 C 73 % 1033,3 hPa 0,0 l/m 0 min 0 min 0 W/m 0,0 km/h (0 Bft) 95,65 %
30.03.2020 05:06 -2,8 C -3,9 C -4,4 C 73 % 1033,3 hPa 0,0 l/m 0 min 0 min 0 W/m 0,0 km/h (0 Bft) 97,87 %
30.03.2020 05:08 -2,8 C -3,9 C -4,4 C 73 % 1033,3 hPa 0,0 l/m 0 min 0 min 0 W/m 0,0 km/h (0 Bft) 97,87 %
30.03.2020 05:10 -2,8 C -3,9 C -4,4 C 73 % 1033,3 hPa 0,0 l/m 0 min 0 min 0 W/m 0,0 km/h (0 Bft) 96,88 %
30.03.2020 05:12 -2,8 C -3,9 C -4,4 C 73 % 1033,2 hPa 0,0 l/m 0 min 0 min 0 W/m 0,0 km/h (0 Bft) 93,62 %
30.03.2020 05:14 -2,8 C -3,9 C -4,4 C 74 % 1033,1 hPa 0,0 l/m 0 min 0 min 0 W/m 0,0 km/h (0 Bft) 93,62 %
30.03.2020 05:16 -2,9 C -3,9 C -4,4 C 74 % 1033,1 hPa 0,0 l/m 0 min 0 min 0 W/m 0,0 km/h (0 Bft) 95,65 %
30.03.2020 05:18 -2,9 C -3,9 C -4,4 C 74 % 1033,1 hPa 0,0 l/m 0 min 0 min 0 W/m 0,0 km/h (0 Bft) 93,62 %
30.03.2020 05:20 -2,9 C -3,9 C -4,4 C 74 % 1033,2 hPa 0,0 l/m 0 min 0 min 0 W/m 0,0 km/h (0 Bft) 95,74 %
30.03.2020 05:22 -2,9 C -3,9 C -4,4 C 74 % 1033,1 hPa 0,0 l/m 0 min 0 min 0 W/m 0,0 km/h (0 Bft) 97,87 %
30.03.2020 05:24 -2,9 C -3,9 C -4,4 C 74 % 1033,1 hPa 0,0 l/m 0 min 0 min 0 W/m 0,0 km/h (0 Bft) 95,74 %
30.03.2020 05:26 -2,9 C -3,9 C -4,4 C 74 % 1033,2 hPa 0,0 l/m 0 min 0 min 0 W/m 0,0 km/h (0 Bft) 95,74 %
30.03.2020 05:28 -2,9 C -3,9 C -5,0 C 74 % 1033,2 hPa 0,0 l/m 0 min 0 min 0 W/m 0,0 km/h (0 Bft) 95,65 %
30.03.2020 05:30 -2,9 C -3,9 C -4,4 C 74 % 1033,1 hPa 0,0 l/m 0 min 0 min 0 W/m 0,0 km/h (0 Bft) 95,74 %
30.03.2020 05:32 -2,9 C -3,9 C -4,4 C 74 % 1033,1 hPa 0,2 l/m 0 min 0 min 0 W/m 0,0 km/h (0 Bft) 95,74 %
30.03.2020 05:34 -2,9 C -3,9 C -4,4 C 74 % 1033,2 hPa 0,0 l/m 0 min 0 min 0 W/m 0,0 km/h (0 Bft) 95,74 %
30.03.2020 05:36 -3,0 C -4,4 C -5,0 C 74 % 1033,1 hPa 0,0 l/m 0 min 0 min 0 W/m 0,0 km/h (0 Bft) 93,62 %
30.03.2020 05:38 -3,0 C -4,4 C -5,0 C 74 % 1033,1 hPa 0,0 l/m 0 min 0 min 0 W/m 0,0 km/h (0 Bft) 95,74 %
30.03.2020 05:40 -3,0 C -3,9 C -5,0 C 74 % 1033,1 hPa 0,0 l/m 0 min 0 min 0 W/m 0,0 km/h (0 Bft) 95,65 %
30.03.2020 05:42 -3,0 C -4,4 C -5,0 C 75 % 1033,1 hPa 0,0 l/m 0 min 0 min 0 W/m 0,0 km/h (0 Bft) 95,74 %
30.03.2020 05:44 -3,1 C -4,4 C -5,0 C 75 % 1033,1 hPa 0,0 l/m 0 min 0 min 0 W/m 0,0 km/h (0 Bft) 95,74 %
30.03.2020 05:46 -3,1 C -4,4 C -5,0 C 75 % 1033,2 hPa 0,0 l/m 0 min 0 min 0 W/m 0,0 km/h (0 Bft) 95,74 %
30.03.2020 05:48 -3,1 C -4,4 C -5,0 C 75 % 1033,2 hPa 0,0 l/m 0 min 0 min 0 W/m 0,0 km/h (0 Bft) 95,74 %
30.03.2020 05:50 -3,1 C -4,4 C -5,0 C 75 % 1033,2 hPa 0,0 l/m 0 min 0 min 0 W/m 0,0 km/h (0 Bft) 97,87 %
30.03.2020 05:52 -3,1 C -4,4 C -5,0 C 75 % 1033,2 hPa 0,0 l/m 0 min 0 min 0 W/m 3,2 km/h (1 Bft) 95,65 %
30.03.2020 05:54 -3,2 C -4,4 C -5,0 C 75 % 1033,2 hPa 0,0 l/m 0 min 0 min 0 W/m 0,0 km/h (0 Bft) 93,62 %
30.03.2020 05:56 -3,2 C -4,4 C -5,0 C 75 % 1033,2 hPa 0,0 l/m 0 min 0 min 0 W/m 0,0 km/h (0 Bft) 95,74 %
30.03.2020 05:58 -3,2 C -4,4 C -5,0 C 75 % 1033,2 hPa 0,0 l/m 0 min 0 min 0 W/m 0,0 km/h (0 Bft) 100,00 %
30.03.2020 06:00 -3,2 C -4,4 C -5,0 C 75 % 1033,2 hPa 0,0 l/m 0 min 0 min 0 W/m 0,0 km/h (0 Bft) 100,00 %
30.03.2020 06:02 -3,2 C -4,4 C -5,0 C 75 % 1033,2 hPa 0,0 l/m 0 min 0 min 0 W/m 0,0 km/h (0 Bft) 97,83 %
30.03.2020 06:04 -3,3 C -4,4 C -5,0 C 75 % 1033,2 hPa 0,0 l/m 0 min 0 min 0 W/m 0,0 km/h (0 Bft) 54,55 %
30.03.2020 06:08 -3,3 C -4,4 C -5,0 C 76 % 1033,2 hPa 0,0 l/m 0 min 0 min 0 W/m 0,0 km/h (0 Bft) 98,94 %
30.03.2020 06:10 -3,3 C -4,4 C -5,0 C 76 % 1033,2 hPa 0,0 l/m 0 min 0 min 0 W/m 0,0 km/h (0 Bft) 97,87 %
30.03.2020 06:12 -3,3 C -4,4 C -5,0 C 76 % 1033,2 hPa 0,0 l/m 0 min 0 min 0 W/m 0,0 km/h (0 Bft) 100,00 %
30.03.2020 06:14 -3,4 C -4,4 C -5,0 C 76 % 1033,1 hPa 0,0 l/m 0 min 0 min 0 W/m 0,0 km/h (0 Bft) 100,00 %
30.03.2020 06:16 -3,4 C -5,0 C -5,0 C 76 % 1033,1 hPa 0,0 l/m 0 min 0 min 0 W/m 0,0 km/h (0 Bft) 100,00 %
30.03.2020 06:18 -3,4 C -5,0 C -5,0 C 76 % 1033,2 hPa 0,0 l/m 0 min 0 min 0 W/m 0,0 km/h (0 Bft) 100,00 %
30.03.2020 06:20 -3,4 C -5,0 C -5,6 C 76 % 1033,2 hPa 0,0 l/m 0 min 0 min 0 W/m 0,0 km/h (0 Bft) 100,00 %
30.03.2020 06:22 -3,5 C -5,0 C -5,6 C 77 % 1033,2 hPa 0,0 l/m 0 min 0 min 0 W/m 0,0 km/h (0 Bft) 100,00 %
30.03.2020 06:24 -3,5 C -5,0 C -5,6 C 77 % 1033,2 hPa 0,0 l/m 0 min 0 min 0 W/m 0,0 km/h (0 Bft) 100,00 %
30.03.2020 06:26 -3,5 C -4,4 C -5,0 C 77 % 1033,2 hPa 0,0 l/m 0 min 0 min 0 W/m 0,0 km/h (0 Bft) 97,83 %
30.03.2020 06:28 -3,6 C -4,4 C -5,0 C 77 % 1033,1 hPa 0,0 l/m 0 min 0 min 0 W/m 0,0 km/h (0 Bft) 100,00 %
30.03.2020 06:30 -3,6 C -4,4 C -5,0 C 77 % 1033,1 hPa 0,0 l/m 0 min 0 min 0 W/m 0,0 km/h (0 Bft) 97,87 %
30.03.2020 06:32 -3,6 C -4,4 C -5,0 C 77 % 1033,1 hPa 0,0 l/m 0 min 0 min 0 W/m 0,0 km/h (0 Bft) 100,00 %
30.03.2020 06:34 -3,6 C -4,4 C -5,0 C 77 % 1033,1 hPa 0,0 l/m 0 min 0 min 0 W/m 0,0 km/h (0 Bft) 100,00 %
30.03.2020 06:36 -3,7 C -4,4 C -5,0 C 77 % 1033,1 hPa 0,0 l/m 0 min 0 min 0 W/m 0,0 km/h (0 Bft) 97,83 %
30.03.2020 06:38 -3,7 C -4,4 C -5,6 C 77 % 1033,1 hPa 0,0 l/m 0 min 0 min 0 W/m 0,0 km/h (0 Bft) 97,87 %
30.03.2020 06:40 -3,7 C -4,4 C -5,6 C 77 % 1033,0 hPa 0,0 l/m 0 min 0 min 0 W/m 0,0 km/h (0 Bft) 100,00 %
30.03.2020 06:42 -3,7 C -4,4 C -5,6 C 78 % 1032,9 hPa 0,0 l/m 0 min 0 min 0 W/m 0,0 km/h (0 Bft) 100,00 %
30.03.2020 06:44 -3,7 C -5,0 C -5,6 C 78 % 1032,9 hPa 0,0 l/m 0 min 0 min 0 W/m 0,0 km/h (0 Bft) 97,87 %
30.03.2020 06:46 -3,7 C -5,0 C -5,6 C 78 % 1032,9 hPa 0,0 l/m 0 min 0 min 0 W/m 0,0 km/h (0 Bft) 100,00 %
30.03.2020 06:48 -3,8 C -5,0 C -5,6 C 78 % 1032,9 hPa 0,0 l/m 0 min 0 min 0 W/m 0,0 km/h (0 Bft) 100,00 %
30.03.2020 06:50 -3,8 C -5,0 C -5,6 C 78 % 1032,9 hPa 0,0 l/m 0 min 0 min 0 W/m 0,0 km/h (0 Bft) 97,87 %
30.03.2020 06:52 -3,8 C -5,0 C -5,6 C 78 % 1032,9 hPa 0,0 l/m 0 min 0 min 0 W/m 0,0 km/h (0 Bft) 97,87 %
30.03.2020 06:54 -3,8 C -5,0 C -5,6 C 78 % 1032,8 hPa 0,0 l/m 0 min 0 min 0 W/m 0,0 km/h (0 Bft) 100,00 %
30.03.2020 06:56 -3,8 C -5,0 C -5,6 C 78 % 1032,8 hPa 0,0 l/m 0 min 0 min 0 W/m 0,0 km/h (0 Bft) 100,00 %
30.03.2020 06:58 -3,9 C -4,4 C -5,6 C 79 % 1032,7 hPa 0,0 l/m 0 min 0 min 0 W/m 0,0 km/h (0 Bft) 97,87 %
30.03.2020 07:00 -3,9 C -4,4 C -5,0 C 79 % 1032,7 hPa 0,0 l/m 0 min 0 min 0 W/m 0,0 km/h (0 Bft) 97,83 %
30.03.2020 07:02 -3,9 C -4,4 C -5,0 C 79 % 1032,7 hPa 0,0 l/m 0 min 0 min 0 W/m 0,0 km/h (0 Bft) 97,87 %
30.03.2020 07:04 -3,9 C -4,4 C -5,0 C 79 % 1032,8 hPa 0,0 l/m 0 min 0 min 0 W/m 0,0 km/h (0 Bft) 97,87 %
30.03.2020 07:06 -3,9 C -4,4 C -5,0 C 80 % 1032,8 hPa 0,0 l/m 0 min 0 min 0 W/m 0,0 km/h (0 Bft) 100,00 %
30.03.2020 07:08 -3,9 C -5,0 C -5,6 C 80 % 1032,8 hPa 0,0 l/m 0 min 0 min 0 W/m 0,0 km/h (0 Bft) 97,87 %
30.03.2020 07:10 -3,9 C -5,0 C -5,6 C 80 % 1032,8 hPa 0,0 l/m 0 min 0 min 0 W/m 0,0 km/h (0 Bft) 97,87 %
30.03.2020 07:12 -3,9 C -5,0 C -5,6 C 80 % 1032,8 hPa 0,0 l/m 0 min 0 min 0 W/m 0,0 km/h (0 Bft) 95,65 %
30.03.2020 07:14 -3,9 C -5,0 C -5,6 C 80 % 1032,8 hPa 0,0 l/m 0 min 0 min 0 W/m 0,0 km/h (0 Bft) 97,87 %
30.03.2020 07:16 -4,0 C -5,0 C -5,6 C 80 % 1032,8 hPa 0,0 l/m 0 min 0 min 4 W/m 0,0 km/h (0 Bft) 97,87 %
30.03.2020 07:18 -4,0 C -5,0 C -5,6 C 80 % 1032,8 hPa 0,0 l/m 0 min 0 min 5 W/m 0,0 km/h (0 Bft) 95,74 %
30.03.2020 07:20 -4,0 C -5,0 C -5,6 C 81 % 1032,8 hPa 0,0 l/m 0 min 0 min 6 W/m 0,0 km/h (0 Bft) 95,74 %
30.03.2020 07:22 -4,0 C -5,0 C -5,6 C 81 % 1032,8 hPa 0,0 l/m 0 min 0 min 7 W/m 0,0 km/h (0 Bft) 97,83 %
30.03.2020 07:24 -4,1 C -5,0 C -5,6 C 81 % 1032,7 hPa 0,0 l/m 0 min 0 min 7 W/m 0,0 km/h (0 Bft) 95,74 %
30.03.2020 07:26 -4,1 C -5,0 C -5,6 C 81 % 1032,7 hPa 0,0 l/m 0 min 0 min 8 W/m 0,0 km/h (0 Bft) 97,87 %
30.03.2020 07:28 -4,1 C -5,0 C -5,6 C 81 % 1032,8 hPa 0,0 l/m 0 min 0 min 9 W/m 0,0 km/h (0 Bft) 100,00 %
30.03.2020 07:30 -4,1 C -5,0 C -5,6 C 81 % 1032,8 hPa 0,0 l/m 0 min 0 min 10 W/m 0,0 km/h (0 Bft) 100,00 %
30.03.2020 07:32 -4,1 C -5,0 C -5,6 C 81 % 1032,8 hPa 0,0 l/m 0 min 0 min 11 W/m 0,0 km/h (0 Bft) 100,00 %
30.03.2020 07:34 -4,1 C -5,0 C -5,6 C 81 % 1032,8 hPa 0,0 l/m 0 min 0 min 11 W/m 0,0 km/h (0 Bft) 100,00 %
30.03.2020 07:36 -4,1 C -5,0 C -5,6 C 81 % 1032,8 hPa 0,0 l/m 0 min 0 min 12 W/m 0,0 km/h (0 Bft) 100,00 %
30.03.2020 07:38 -4,2 C -5,0 C -5,6 C 81 % 1032,9 hPa 0,0 l/m 0 min 0 min 12 W/m 0,0 km/h (0 Bft) 100,00 %
30.03.2020 07:40 -4,2 C -5,0 C -5,6 C 81 % 1032,9 hPa 0,0 l/m 0 min 0 min 14 W/m 0,0 km/h (0 Bft) 97,87 %
30.03.2020 07:42 -4,2 C -5,0 C -5,6 C 82 % 1032,9 hPa 0,0 l/m 0 min 0 min 14 W/m 0,0 km/h (0 Bft) 100,00 %
30.03.2020 07:44 -4,2 C -5,0 C -5,6 C 82 % 1032,9 hPa 0,0 l/m 0 min 0 min 15 W/m 0,0 km/h (0 Bft) 100,00 %
30.03.2020 07:46 -4,2 C -5,0 C -5,6 C 82 % 1032,9 hPa 0,0 l/m 0 min 0 min 16 W/m 0,0 km/h (0 Bft) 100,00 %
30.03.2020 07:48 -4,2 C -5,0 C -5,6 C 82 % 1032,8 hPa 0,0 l/m 0 min 0 min 16 W/m 0,0 km/h (0 Bft) 100,00 %
30.03.2020 07:50 -4,2 C -4,4 C -5,6 C 82 % 1032,9 hPa 0,0 l/m 0 min 0 min 18 W/m 0,0 km/h (0 Bft) 93,62 %
30.03.2020 07:52 -4,2 C -4,4 C -5,6 C 82 % 1032,9 hPa 0,0 l/m 0 min 0 min 18 W/m 0,0 km/h (0 Bft) 95,74 %
30.03.2020 07:54 -4,2 C -4,4 C -5,0 C 82 % 1032,9 hPa 0,0 l/m 0 min 0 min 19 W/m 0,0 km/h (0 Bft) 97,87 %
30.03.2020 07:56 -4,2 C -4,4 C -5,0 C 83 % 1032,9 hPa 0,0 l/m 0 min 0 min 19 W/m 0,0 km/h (0 Bft) 97,87 %
30.03.2020 07:58 -4,3 C -4,4 C -5,0 C 83 % 1032,9 hPa 0,0 l/m 0 min 0 min 20 W/m 0,0 km/h (0 Bft) 97,83 %
30.03.2020 08:00 -4,3 C -4,4 C -5,0 C 83 % 1032,9 hPa 0,0 l/m 0 min 0 min 21 W/m 0,0 km/h (0 Bft) 97,87 %
30.03.2020 08:02 -4,2 C -4,4 C -5,0 C 83 % 1032,9 hPa 0,0 l/m 0 min 0 min 21 W/m 0,0 km/h (0 Bft) 97,87 %
30.03.2020 08:04 -4,2 C -4,4 C -5,0 C 83 % 1032,9 hPa 0,0 l/m 0 min 0 min 22 W/m 0,0 km/h (0 Bft) 97,87 %
30.03.2020 08:06 -4,2 C -3,9 C -5,0 C 83 % 1032,9 hPa 0,0 l/m 0 min 0 min 23 W/m 0,0 km/h (0 Bft) 97,87 %
30.03.2020 08:08 -4,2 C -3,9 C -5,0 C 83 % 1032,8 hPa 0,0 l/m 0 min 0 min 24 W/m 0,0 km/h (0 Bft) 95,74 %
30.03.2020 08:10 -4,2 C -3,9 C -5,0 C 84 % 1032,8 hPa 0,0 l/m 0 min 0 min 25 W/m 0,0 km/h (0 Bft) 97,83 %
30.03.2020 08:12 -4,2 C -3,9 C -4,4 C 84 % 1032,7 hPa 0,0 l/m 0 min 0 min 25 W/m 0,0 km/h (0 Bft) 97,87 %
30.03.2020 08:14 -4,2 C -3,9 C -4,4 C 84 % 1032,8 hPa 0,0 l/m 0 min 0 min 26 W/m 0,0 km/h (0 Bft) 97,87 %
30.03.2020 08:16 -4,2 C -3,9 C -4,4 C 84 % 1032,8 hPa 0,0 l/m 0 min 0 min 26 W/m 0,0 km/h (0 Bft) 97,87 %
30.03.2020 08:18 -4,2 C -3,9 C -4,4 C 84 % 1032,8 hPa 0,0 l/m 0 min 0 min 26 W/m 0,0 km/h (0 Bft) 97,87 %
30.03.2020 08:20 -4,1 C -3,9 C -4,4 C 85 % 1032,9 hPa 0,0 l/m 0 min 0 min 25 W/m 0,0 km/h (0 Bft) 97,83 %
30.03.2020 08:22 -4,1 C -3,9 C -4,4 C 85 % 1032,8 hPa 0,0 l/m 0 min 0 min 27 W/m 0,0 km/h (0 Bft) 95,74 %
30.03.2020 08:24 -4,1 C -3,3 C -4,4 C 85 % 1032,8 hPa 0,0 l/m 0 min 0 min 28 W/m 0,0 km/h (0 Bft) 97,87 %
30.03.2020 08:26 -4,1 C -3,3 C -4,4 C 85 % 1032,8 hPa 0,0 l/m 0 min 0 min 28 W/m 0,0 km/h (0 Bft) 93,62 %
30.03.2020 08:28 -4,0 C -3,3 C -4,4 C 86 % 1032,8 hPa 0,0 l/m 0 min 0 min 30 W/m 0,0 km/h (0 Bft) 97,87 %
30.03.2020 08:30 -3,9 C -3,3 C -4,4 C 86 % 1032,7 hPa 0,0 l/m 0 min 0 min 30 W/m 0,0 km/h (0 Bft) 95,74 %
30.03.2020 08:32 -3,9 C -3,3 C -4,4 C 86 % 1032,8 hPa 0,0 l/m 0 min 0 min 30 W/m 3,2 km/h (1 Bft) 95,65 %
30.03.2020 08:34 -3,9 C -3,3 C -4,4 C 86 % 1032,8 hPa 0,0 l/m 0 min 0 min 30 W/m 0,0 km/h (0 Bft) 95,74 %
30.03.2020 08:36 -3,9 C -3,3 C -4,4 C 86 % 1032,7 hPa 0,0 l/m 0 min 0 min 30 W/m 0,0 km/h (0 Bft) 95,74 %
30.03.2020 08:38 -3,8 C -2,8 C -3,9 C 86 % 1032,7 hPa 0,0 l/m 0 min 0 min 32 W/m 0,0 km/h (0 Bft) 95,74 %
30.03.2020 08:40 -3,8 C -2,8 C -3,9 C 87 % 1032,7 hPa 0,0 l/m 0 min 0 min 32 W/m 0,0 km/h (0 Bft) 97,87 %
30.03.2020 08:42 -3,8 C -2,8 C -3,9 C 87 % 1032,8 hPa 0,0 l/m 0 min 0 min 33 W/m 0,0 km/h (0 Bft) 97,87 %
30.03.2020 08:44 -3,7 C -2,8 C -3,9 C 87 % 1032,8 hPa 0,0 l/m 0 min 0 min 33 W/m 0,0 km/h (0 Bft) 97,83 %
30.03.2020 08:46 -3,7 C -2,8 C -3,9 C 87 % 1032,8 hPa 0,0 l/m 0 min 0 min 33 W/m 0,0 km/h (0 Bft) 97,87 %
30.03.2020 08:48 -3,6 C -2,8 C -3,9 C 87 % 1032,8 hPa 0,0 l/m 0 min 0 min 33 W/m 0,0 km/h (0 Bft) 97,87 %
30.03.2020 08:50 -3,6 C -2,8 C -3,9 C 88 % 1032,9 hPa 0,0 l/m 0 min 0 min 35 W/m 0,0 km/h (0 Bft) 97,87 %
30.03.2020 08:52 -3,5 C -2,2 C -3,9 C 88 % 1032,8 hPa 0,0 l/m 0 min 0 min 35 W/m 0,0 km/h (0 Bft) 97,87 %
30.03.2020 08:54 -3,4 C -2,2 C -3,3 C 88 % 1032,8 hPa 0,0 l/m 0 min 0 min 35 W/m 0,0 km/h (0 Bft) 97,87 %
30.03.2020 08:56 -3,4 C -2,2 C -3,3 C 88 % 1032,8 hPa 0,0 l/m 0 min 0 min 35 W/m 0,0 km/h (0 Bft) 97,83 %
30.03.2020 08:58 -3,3 C -2,2 C -3,3 C 88 % 1032,8 hPa 0,0 l/m 0 min 0 min 35 W/m 0,0 km/h (0 Bft) 97,87 %
30.03.2020 09:00 -3,3 C -2,2 C -3,3 C 88 % 1032,8 hPa 0,0 l/m 0 min 0 min 37 W/m 0,0 km/h (0 Bft) 97,87 %
30.03.2020 09:02 -3,2 C -2,2 C -3,3 C 88 % 1032,7 hPa 0,0 l/m 0 min 0 min 37 W/m 0,0 km/h (0 Bft) 97,87 %
30.03.2020 09:04 -3,2 C -2,2 C -3,3 C 88 % 1032,7 hPa 0,0 l/m 0 min 0 min 37 W/m 0,0 km/h (0 Bft) 95,74 %
30.03.2020 09:06 -3,1 C -2,2 C -3,3 C 88 % 1032,7 hPa 0,0 l/m 0 min 0 min 39 W/m 0,0 km/h (0 Bft) 100,00 %
30.03.2020 09:08 -3,1 C -1,7 C -3,3 C 88 % 1032,7 hPa 0,0 l/m 0 min 0 min 39 W/m 0,0 km/h (0 Bft) 65,96 %
30.03.2020 09:10 -3,1 C -1,7 C -3,3 C 88 % 1032,7 hPa 0,0 l/m 0 min 0 min 39 W/m 0,0 km/h (0 Bft) 88,64 %
30.03.2020 09:12 -3,0 C -1,7 C -3,3 C 88 % 1032,7 hPa 0,0 l/m 0 min 0 min 40 W/m 3,2 km/h (1 Bft) 97,87 %
30.03.2020 09:14 -2,9 C -1,7 C -3,3 C 88 % 1032,7 hPa 0,0 l/m 0 min 0 min 40 W/m 0,0 km/h (0 Bft) 97,87 %
30.03.2020 09:16 -2,9 C -1,7 C -3,3 C 89 % 1032,7 hPa 0,0 l/m 0 min 0 min 40 W/m 0,0 km/h (0 Bft) 97,87 %
30.03.2020 09:18 -2,8 C -1,1 C -2,8 C 89 % 1032,7 hPa 0,0 l/m 0 min 0 min 42 W/m 0,0 km/h (0 Bft) 95,56 %
30.03.2020 09:20 -2,8 C -1,1 C -2,8 C 89 % 1032,7 hPa 0,0 l/m 0 min 0 min 42 W/m 3,2 km/h (1 Bft) 99,12 %
30.03.2020 09:25 -2,6 C -1,1 C -2,8 C 89 % 1032,7 hPa 0,0 l/m 0 min 0 min 44 W/m 0,0 km/h (0 Bft) 100,00 %
30.03.2020 09:28 -2,4 C -1,1 C -2,2 C 89 % 1032,6 hPa 0,0 l/m 0 min 0 min 44 W/m 0,0 km/h (0 Bft) 98,04 %
30.03.2020 09:30 -2,4 C 0,0 C -2,8 C 89 % 1032,7 hPa 0,0 l/m 0 min 0 min 46 W/m 0,0 km/h (0 Bft) 97,83 %
30.03.2020 09:32 -2,3 C 2,8 C -2,2 C 89 % 1032,7 hPa 0,0 l/m 0 min 0 min 70 W/m 0,0 km/h (0 Bft) 97,87 %
30.03.2020 09:34 -2,2 C 4,4 C -2,2 C 89 % 1032,7 hPa 0,0 l/m 0 min 0 min 153 W/m 0,0 km/h (0 Bft) 95,74 %
30.03.2020 09:36 -2,1 C 5,6 C -2,2 C 89 % 1032,6 hPa 0,0 l/m 2 min 0 min 350 W/m 0,0 km/h (0 Bft) 97,87 %
30.03.2020 09:38 -1,9 C 6,1 C -2,2 C 89 % 1032,7 hPa 0,0 l/m 2 min 0 min 354 W/m 0,0 km/h (0 Bft) 97,87 %
30.03.2020 09:40 -1,8 C 6,1 C -2,2 C 89 % 1032,7 hPa 0,0 l/m 2 min 0 min 360 W/m 6,4 km/h (2 Bft) 97,87 %
30.03.2020 09:42 -1,6 C 7,2 C -2,2 C 89 % 1032,7 hPa 0,0 l/m 2 min 0 min 367 W/m 0,0 km/h (0 Bft) 97,56 %
30.03.2020 09:44 -1,5 C 7,2 C -2,2 C 89 % 1032,6 hPa 0,0 l/m 2 min 0 min 372 W/m 0,0 km/h (0 Bft) 97,87 %
30.03.2020 09:46 -1,3 C 7,8 C -2,2 C 89 % 1032,7 hPa 0,0 l/m 2 min 0 min 378 W/m 0,0 km/h (0 Bft) 97,92 %
30.03.2020 09:48 -1,2 C 7,8 C -1,7 C 89 % 1032,6 hPa 0,0 l/m 2 min 0 min 384 W/m 0,0 km/h (0 Bft) 55,56 %
30.03.2020 09:50 -1,0 C 8,9 C -1,7 C 89 % 1032,6 hPa 0,0 l/m 2 min 0 min 392 W/m 0,0 km/h (0 Bft) 97,83 %
30.03.2020 09:52 -0,8 C 9,4 C -1,7 C 89 % 1032,6 hPa 0,0 l/m 2 min 0 min 398 W/m 0,0 km/h (0 Bft) 100,00 %
30.03.2020 09:54 -0,6 C 9,4 C 0,6 C 89 % 1032,6 hPa 0,0 l/m 2 min 0 min 404 W/m 0,0 km/h (0 Bft) 100,00 %
30.03.2020 09:56 -0,3 C 9,4 C 3,9 C 88 % 1032,6 hPa 0,0 l/m 2 min 0 min 409 W/m 0,0 km/h (0 Bft) 100,00 %
30.03.2020 09:58 -0,2 C 10,0 C 6,7 C 88 % 1032,6 hPa 0,0 l/m 2 min 0 min 415 W/m 0,0 km/h (0 Bft) 100,00 %
30.03.2020 10:00 0,1 C 10,0 C 8,3 C 88 % 1032,7 hPa 0,0 l/m 2 min 0 min 421 W/m 0,0 km/h (0 Bft) 100,00 %
30.03.2020 10:02 0,3 C 8,9 C 8,9 C 88 % 1032,7 hPa 0,0 l/m 2 min 0 min 427 W/m 6,4 km/h (2 Bft) 100,00 %
30.03.2020 10:04 0,6 C 8,9 C 8,9 C 87 % 1032,6 hPa 0,0 l/m 2 min 0 min 433 W/m 6,4 km/h (2 Bft) 100,00 %
30.03.2020 10:06 0,7 C 9,4 C 9,4 C 86 % 1032,6 hPa 0,0 l/m 2 min 0 min 439 W/m 6,4 km/h (2 Bft) 95,74 %
30.03.2020 10:08 1,0 C 10,0 C 10,6 C 85 % 1032,6 hPa 0,0 l/m 2 min 0 min 445 W/m 0,0 km/h (0 Bft) 95,74 %
30.03.2020 10:10 1,2 C 10,0 C 11,1 C 84 % 1032,6 hPa 0,0 l/m 2 min 0 min 449 W/m 0,0 km/h (0 Bft) 97,87 %
30.03.2020 10:12 1,4 C 10,6 C 11,1 C 82 % 1032,6 hPa 0,0 l/m 2 min 0 min 455 W/m 0,0 km/h (0 Bft) 95,74 %
30.03.2020 10:14 1,7 C 10,0 C 11,1 C 81 % 1032,5 hPa 0,0 l/m 2 min 0 min 462 W/m 0,0 km/h (0 Bft) 97,56 %
30.03.2020 10:16 1,9 C 10,6 C 10,6 C 79 % 1032,6 hPa 0,0 l/m 2 min 0 min 466 W/m 9,7 km/h (2 Bft) 97,87 %
30.03.2020 10:18 2,2 C 10,0 C 9,4 C 77 % 1032,6 hPa 0,0 l/m 2 min 0 min 470 W/m 6,4 km/h (2 Bft) 97,87 %
30.03.2020 10:20 2,4 C 9,4 C 10,0 C 76 % 1032,5 hPa 0,0 l/m 2 min 0 min 478 W/m 3,2 km/h (1 Bft) 95,74 %
30.03.2020 10:22 2,6 C 10,6 C 10,6 C 74 % 1032,6 hPa 0,0 l/m 2 min 0 min 482 W/m 0,0 km/h (0 Bft) 97,87 %
30.03.2020 10:24 2,7 C 10,0 C 11,1 C 73 % 1032,5 hPa 0,0 l/m 2 min 0 min 487 W/m 0,0 km/h (0 Bft) 97,87 %
30.03.2020 10:26 2,9 C 8,9 C 10,6 C 71 % 1032,5 hPa 0,0 l/m 2 min 0 min 493 W/m 0,0 km/h (0 Bft) 95,74 %
30.03.2020 10:28 3,1 C 10,6 C 12,2 C 69 % 1032,5 hPa 0,0 l/m 2 min 0 min 498 W/m 0,0 km/h (0 Bft) 97,87 %
30.03.2020 10:30 3,3 C 10,6 C 11,1 C 68 % 1032,5 hPa 0,0 l/m 2 min 0 min 503 W/m 0,0 km/h (0 Bft) 100,00 %
30.03.2020 10:32 3,4 C 11,1 C 11,7 C 67 % 1032,5 hPa 0,0 l/m 2 min 0 min 510 W/m 0,0 km/h (0 Bft) 100,00 %
30.03.2020 10:34 3,6 C 11,1 C 11,7 C 64 % 1032,5 hPa 0,0 l/m 2 min 0 min 514 W/m 0,0 km/h (0 Bft) 100,00 %
30.03.2020 10:36 3,8 C 12,2 C 12,8 C 63 % 1032,4 hPa 0,0 l/m 2 min 0 min 518 W/m 0,0 km/h (0 Bft) 100,00 %
30.03.2020 10:38 3,9 C 12,2 C 12,8 C 62 % 1032,4 hPa 0,0 l/m 2 min 0 min 525 W/m 0,0 km/h (0 Bft) 100,00 %
30.03.2020 10:40 4,1 C 12,2 C 12,2 C 61 % 1032,4 hPa 0,0 l/m 2 min 0 min 531 W/m 3,2 km/h (1 Bft) 95,83 %
30.03.2020 10:42 4,3 C 11,1 C 11,7 C 60 % 1032,4 hPa 0,0 l/m 2 min 0 min 534 W/m 3,2 km/h (1 Bft) 100,00 %
30.03.2020 10:44 4,4 C 11,1 C 11,7 C 60 % 1032,4 hPa 0,0 l/m 2 min 0 min 540 W/m 6,4 km/h (2 Bft) 97,87 %
30.03.2020 10:46 4,6 C 10,6 C 11,1 C 59 % 1032,4 hPa 0,0 l/m 2 min 0 min 545 W/m 6,4 km/h (2 Bft) 100,00 %
30.03.2020 10:48 4,7 C 10,6 C 10,6 C 59 % 1032,3 hPa 0,0 l/m 2 min 0 min 548 W/m 6,4 km/h (2 Bft) 100,00 %
30.03.2020 10:50 4,8 C 11,7 C 9,4 C 58 % 1032,3 hPa 0,0 l/m 2 min 0 min 554 W/m 6,4 km/h (2 Bft) 100,00 %
30.03.2020 10:52 4,9 C 12,2 C 8,9 C 59 % 1032,3 hPa 0,0 l/m 2 min 0 min 560 W/m 12,9 km/h (3 Bft) 100,00 %
30.03.2020 10:54 5,0 C 12,8 C 8,3 C 58 % 1032,3 hPa 0,0 l/m 2 min 0 min 576 W/m 6,4 km/h (2 Bft) 100,00 %
30.03.2020 10:56 5,1 C 12,2 C 7,8 C 58 % 1032,4 hPa 0,0 l/m 2 min 0 min 608 W/m 6,4 km/h (2 Bft) 100,00 %
30.03.2020 10:58 5,2 C 12,2 C 6,7 C 57 % 1032,3 hPa 0,0 l/m 2 min 0 min 654 W/m 9,7 km/h (2 Bft) 100,00 %
30.03.2020 11:00 5,3 C 12,8 C 6,7 C 57 % 1032,4 hPa 0,0 l/m 2 min 0 min 582 W/m 9,7 km/h (2 Bft) 100,00 %
30.03.2020 11:02 5,4 C 11,7 C 6,1 C 56 % 1032,3 hPa 0,0 l/m 2 min 0 min 585 W/m 3,2 km/h (1 Bft) 100,00 %
30.03.2020 11:04 5,5 C 11,7 C 6,1 C 56 % 1032,3 hPa 0,0 l/m 2 min 0 min 591 W/m 6,4 km/h (2 Bft) 95,56 %
30.03.2020 11:06 5,6 C 11,7 C 6,7 C 56 % 1032,3 hPa 0,0 l/m 2 min 0 min 650 W/m 12,9 km/h (3 Bft) 100,00 %
30.03.2020 11:08 5,7 C 10,0 C 6,1 C 56 % 1032,3 hPa 0,0 l/m 2 min 0 min 402 W/m 6,4 km/h (2 Bft) 100,00 %
30.03.2020 11:10 5,7 C 9,4 C 5,6 C 54 % 1032,3 hPa 0,0 l/m 2 min 0 min 296 W/m 6,4 km/h (2 Bft) 95,74 %
30.03.2020 11:12 5,7 C 10,0 C 5,0 C 54 % 1032,2 hPa 0,0 l/m 0 min 0 min 262 W/m 9,7 km/h (2 Bft) 93,62 %
30.03.2020 11:14 5,7 C 11,1 C 5,0 C 55 % 1032,2 hPa 0,0 l/m 2 min 0 min 360 W/m 3,2 km/h (1 Bft) 93,62 %
30.03.2020 11:16 5,8 C 11,1 C 4,4 C 54 % 1032,1 hPa 0,0 l/m 2 min 0 min 642 W/m 6,4 km/h (2 Bft) 95,65 %
30.03.2020 11:18 5,8 C 12,2 C 4,4 C 54 % 1032,1 hPa 0,0 l/m 2 min 0 min 634 W/m 12,9 km/h (3 Bft) 95,74 %
30.03.2020 11:20 5,9 C 12,8 C 4,4 C 55 % 1032,1 hPa 0,0 l/m 2 min 0 min 629 W/m 9,7 km/h (2 Bft) 95,74 %
30.03.2020 11:22 6,1 C 13,9 C 4,4 C 56 % 1032,1 hPa 0,0 l/m 2 min 0 min 628 W/m 6,4 km/h (2 Bft) 95,74 %
30.03.2020 11:24 6,2 C 14,4 C 4,4 C 56 % 1032,1 hPa 0,0 l/m 2 min 0 min 634 W/m 6,4 km/h (2 Bft) 95,74 %
30.03.2020 11:26 6,3 C 13,9 C 4,4 C 55 % 1032,1 hPa 0,0 l/m 2 min 0 min 641 W/m 6,4 km/h (2 Bft) 95,65 %
30.03.2020 11:28 6,4 C 13,3 C 5,0 C 54 % 1032,1 hPa 0,0 l/m 2 min 0 min 648 W/m 9,7 km/h (2 Bft) 93,62 %
30.03.2020 11:30 6,5 C 13,3 C 4,4 C 54 % 1032,0 hPa 0,0 l/m 2 min 0 min 649 W/m 0,0 km/h (0 Bft) 95,74 %
30.03.2020 11:32 6,5 C 12,8 C 4,4 C 53 % 1032,0 hPa 0,0 l/m 2 min 0 min 653 W/m 0,0 km/h (0 Bft) 95,74 %
30.03.2020 11:34 6,6 C 12,2 C 4,4 C 53 % 1031,9 hPa 0,0 l/m 2 min 0 min 651 W/m 6,4 km/h (2 Bft) 95,74 %
30.03.2020 11:36 6,6 C 12,2 C 4,4 C 55 % 1031,9 hPa 0,0 l/m 2 min 0 min 654 W/m 3,2 km/h (1 Bft) 95,74 %
30.03.2020 11:38 6,7 C 11,7 C 4,4 C 54 % 1031,8 hPa 0,0 l/m 2 min 0 min 646 W/m 6,4 km/h (2 Bft) 93,48 %
30.03.2020 11:40 6,7 C 12,8 C 4,4 C 54 % 1031,8 hPa 0,0 l/m 2 min 0 min 659 W/m 6,4 km/h (2 Bft) 95,74 %
30.03.2020 11:42 6,8 C 12,8 C 5,0 C 55 % 1031,8 hPa 0,0 l/m 2 min 0 min 663 W/m 6,4 km/h (2 Bft) 95,74 %
30.03.2020 11:44 6,9 C 12,2 C 5,0 C 54 % 1031,7 hPa 0,0 l/m 2 min 0 min 669 W/m 6,4 km/h (2 Bft) 95,74 %
30.03.2020 11:46 6,9 C 12,2 C 5,0 C 54 % 1031,7 hPa 0,0 l/m 2 min 0 min 672 W/m 3,2 km/h (1 Bft) 93,62 %
30.03.2020 11:48 6,9 C 12,8 C 5,0 C 54 % 1031,7 hPa 0,0 l/m 2 min 0 min 680 W/m 12,9 km/h (3 Bft) 95,74 %
30.03.2020 11:50 7,0 C 13,3 C 5,6 C 55 % 1031,6 hPa 0,0 l/m 2 min 0 min 700 W/m 6,4 km/h (2 Bft) 93,48 %
30.03.2020 11:52 7,1 C 12,2 C 5,6 C 54 % 1031,6 hPa 0,0 l/m 2 min 0 min 673 W/m 12,9 km/h (3 Bft) 97,87 %
30.03.2020 11:54 7,1 C 11,7 C 5,0 C 53 % 1031,6 hPa 0,0 l/m 2 min 0 min 686 W/m 16,1 km/h (3 Bft) 97,87 %
30.03.2020 11:56 7,1 C 12,2 C 5,6 C 54 % 1031,6 hPa 0,0 l/m 2 min 0 min 681 W/m 12,9 km/h (3 Bft) 93,62 %
30.03.2020 11:58 7,1 C 13,9 C 5,6 C 55 % 1031,5 hPa 0,0 l/m 2 min 0 min 694 W/m 9,7 km/h (2 Bft) 93,62 %
30.03.2020 12:00 7,2 C 13,3 C 6,1 C 55 % 1031,5 hPa 0,0 l/m 2 min 0 min 850 W/m 6,4 km/h (2 Bft) 95,74 %
30.03.2020 12:02 7,2 C 10,6 C 6,7 C 54 % 1031,5 hPa 0,0 l/m 2 min 0 min 730 W/m 9,7 km/h (2 Bft) 95,65 %
30.03.2020 12:04 7,2 C 10,6 C 7,2 C 54 % 1031,4 hPa 0,0 l/m 2 min 0 min 437 W/m 6,4 km/h (2 Bft) 95,74 %
30.03.2020 12:08 7,3 C 9,4 C 7,2 C 54 % 1031,4 hPa 0,0 l/m 4 min 0 min 402 W/m 12,9 km/h (3 Bft) 94,68 %
30.03.2020 12:10 7,2 C 8,9 C 7,2 C 54 % 1031,4 hPa 0,0 l/m 2 min 0 min 380 W/m 6,4 km/h (2 Bft) 93,62 %
30.03.2020 12:12 7,2 C 9,4 C 7,8 C 55 % 1031,4 hPa 0,0 l/m 2 min 0 min 378 W/m 9,7 km/h (2 Bft) 95,74 %
30.03.2020 12:14 7,3 C 9,4 C 7,8 C 56 % 1031,4 hPa 0,0 l/m 2 min 0 min 381 W/m 9,7 km/h (2 Bft) 95,65 %
30.03.2020 12:16 7,2 C 9,4 C 7,8 C 56 % 1031,4 hPa 0,0 l/m 2 min 0 min 373 W/m 12,9 km/h (3 Bft) 95,74 %
30.03.2020 12:18 7,2 C 8,9 C 7,8 C 56 % 1031,4 hPa 0,0 l/m 2 min 0 min 356 W/m 6,4 km/h (2 Bft) 95,74 %
30.03.2020 12:20 7,2 C 8,3 C 7,2 C 56 % 1031,3 hPa 0,0 l/m 2 min 0 min 364 W/m 9,7 km/h (2 Bft) 93,62 %
30.03.2020 12:22 7,1 C 8,3 C 7,2 C 56 % 1031,3 hPa 0,0 l/m 2 min 0 min 381 W/m 6,4 km/h (2 Bft) 95,74 %
30.03.2020 12:24 7,1 C 8,3 C 7,2 C 55 % 1031,2 hPa 0,0 l/m 2 min 0 min 381 W/m 6,4 km/h (2 Bft) 93,48 %
30.03.2020 12:26 7,1 C 8,9 C 7,8 C 56 % 1031,2 hPa 0,0 l/m 2 min 0 min 407 W/m 9,7 km/h (2 Bft) 93,62 %
30.03.2020 12:28 7,0 C 8,9 C 7,8 C 57 % 1031,2 hPa 0,0 l/m 2 min 0 min 392 W/m 9,7 km/h (2 Bft) 95,74 %
30.03.2020 12:30 7,1 C 8,9 C 7,8 C 57 % 1031,2 hPa 0,0 l/m 2 min 0 min 397 W/m 9,7 km/h (2 Bft) 97,87 %
30.03.2020 12:32 7,1 C 8,3 C 7,8 C 57 % 1031,1 hPa 0,0 l/m 2 min 0 min 354 W/m 9,7 km/h (2 Bft) 95,74 %
30.03.2020 12:34 7,1 C 8,3 C 7,8 C 59 % 1031,1 hPa 0,0 l/m 2 min 0 min 335 W/m 12,9 km/h (3 Bft) 95,74 %
30.03.2020 12:36 7,1 C 9,4 C 8,3 C 58 % 1031,1 hPa 0,0 l/m 2 min 0 min 408 W/m 12,9 km/h (3 Bft) 95,65 %
30.03.2020 12:38 7,1 C 9,4 C 8,3 C 58 % 1031,1 hPa 0,0 l/m 2 min 0 min 365 W/m 16,1 km/h (3 Bft) 97,87 %
30.03.2020 12:40 7,1 C 9,4 C 8,3 C 59 % 1031,1 hPa 0,0 l/m 2 min 0 min 395 W/m 16,1 km/h (3 Bft) 97,87 %
30.03.2020 12:42 7,1 C 8,9 C 7,8 C 58 % 1031,0 hPa 0,0 l/m 2 min 0 min 327 W/m 16,1 km/h (3 Bft) 97,87 %
30.03.2020 12:44 7,0 C 8,9 C 7,8 C 58 % 1031,0 hPa 0,0 l/m 2 min 0 min 334 W/m 9,7 km/h (2 Bft) 97,87 %
30.03.2020 12:46 7,0 C 9,4 C 8,3 C 58 % 1031,0 hPa 0,0 l/m 2 min 0 min 434 W/m 9,7 km/h (2 Bft) 100,00 %
30.03.2020 12:48 7,1 C 10,0 C 8,3 C 58 % 1030,9 hPa 0,0 l/m 2 min 0 min 446 W/m 12,9 km/h (3 Bft) 100,00 %
30.03.2020 12:50 7,1 C 10,6 C 8,9 C 59 % 1031,0 hPa 0,0 l/m 2 min 0 min 461 W/m 6,4 km/h (2 Bft) 97,87 %
30.03.2020 12:52 7,1 C 10,6 C 8,9 C 59 % 1030,9 hPa 0,0 l/m 2 min 0 min 519 W/m 6,4 km/h (2 Bft) 95,74 %
30.03.2020 12:54 7,2 C 10,0 C 8,3 C 58 % 1030,8 hPa 0,0 l/m 2 min 0 min 422 W/m 9,7 km/h (2 Bft) 97,87 %
30.03.2020 12:56 7,2 C 9,4 C 8,3 C 58 % 1030,8 hPa 0,0 l/m 2 min 0 min 372 W/m 3,2 km/h (1 Bft) 100,00 %
30.03.2020 12:58 7,2 C 8,3 C 8,3 C 58 % 1030,8 hPa 0,0 l/m 2 min 0 min 365 W/m 9,7 km/h (2 Bft) 100,00 %
30.03.2020 13:00 7,2 C 8,3 C 7,2 C 58 % 1030,7 hPa 0,0 l/m 2 min 0 min 331 W/m 16,1 km/h (3 Bft) 97,83 %
30.03.2020 13:02 7,1 C 8,3 C 7,2 C 58 % 1030,7 hPa 0,0 l/m 0 min 0 min 316 W/m 16,1 km/h (3 Bft) 95,74 %
30.03.2020 13:04 7,1 C 8,3 C 7,8 C 58 % 1030,7 hPa 0,0 l/m 0 min 0 min 318 W/m 22,5 km/h (4 Bft) 95,74 %
30.03.2020 13:06 7,1 C 8,3 C 7,8 C 58 % 1030,6 hPa 0,0 l/m 2 min 0 min 388 W/m 16,1 km/h (3 Bft) 93,62 %
30.03.2020 13:08 7,1 C 8,9 C 7,8 C 58 % 1030,7 hPa 0,0 l/m 2 min 0 min 417 W/m 16,1 km/h (3 Bft) 95,74 %
30.03.2020 13:10 7,1 C 8,3 C 7,2 C 58 % 1030,6 hPa 0,0 l/m 2 min 0 min 357 W/m 16,1 km/h (3 Bft) 93,62 %
30.03.2020 13:12 7,1 C 8,9 C 7,8 C 59 % 1030,6 hPa 0,0 l/m 2 min 0 min 341 W/m 12,9 km/h (3 Bft) 97,83 %
30.03.2020 13:14 7,1 C 8,9 C 8,3 C 59 % 1030,6 hPa 0,0 l/m 2 min 0 min 367 W/m 9,7 km/h (2 Bft) 97,87 %
30.03.2020 13:16 7,1 C 9,4 C 8,3 C 59 % 1030,6 hPa 0,0 l/m 2 min 0 min 411 W/m 12,9 km/h (3 Bft) 97,87 %
30.03.2020 13:18 7,2 C 11,1 C 8,9 C 59 % 1030,6 hPa 0,0 l/m 2 min 0 min 476 W/m 16,1 km/h (3 Bft) 97,87 %
30.03.2020 13:20 7,3 C 11,1 C 8,9 C 59 % 1030,6 hPa 0,0 l/m 2 min 0 min 470 W/m 12,9 km/h (3 Bft) 97,87 %
30.03.2020 13:22 7,3 C 11,1 C 8,9 C 59 % 1030,6 hPa 0,0 l/m 2 min 0 min 397 W/m 12,9 km/h (3 Bft) 95,74 %
30.03.2020 13:24 7,4 C 10,6 C 8,9 C 59 % 1030,6 hPa 0,0 l/m 2 min 0 min 444 W/m 9,7 km/h (2 Bft) 97,83 %
30.03.2020 13:26 7,5 C 11,1 C 8,9 C 58 % 1030,5 hPa 0,0 l/m 2 min 0 min 489 W/m 9,7 km/h (2 Bft) 97,87 %
30.03.2020 13:28 7,6 C 10,6 C 8,9 C 59 % 1030,5 hPa 0,0 l/m 2 min 0 min 449 W/m 9,7 km/h (2 Bft) 97,87 %
30.03.2020 13:30 7,6 C 10,0 C 8,9 C 58 % 1030,5 hPa 0,0 l/m 2 min 0 min 367 W/m 9,7 km/h (2 Bft) 97,87 %
30.03.2020 13:32 7,6 C 10,0 C 8,9 C 58 % 1030,5 hPa 0,0 l/m 2 min 0 min 350 W/m 12,9 km/h (3 Bft) 97,87 %
30.03.2020 13:34 7,7 C 10,0 C 8,9 C 58 % 1030,4 hPa 0,0 l/m 2 min 0 min 430 W/m 9,7 km/h (2 Bft) 97,83 %
30.03.2020 13:36 7,7 C 10,0 C 8,9 C 58 % 1030,4 hPa 0,0 l/m 2 min 0 min 429 W/m 9,7 km/h (2 Bft) 97,87 %
30.03.2020 13:38 7,7 C 10,0 C 8,9 C 58 % 1030,4 hPa 0,0 l/m 0 min 0 min 331 W/m 6,4 km/h (2 Bft) 100,00 %
30.03.2020 13:40 7,7 C 9,4 C 8,3 C 57 % 1030,3 hPa 0,0 l/m 0 min 0 min 311 W/m 9,7 km/h (2 Bft) 97,87 %
30.03.2020 13:42 7,8 C 9,4 C 8,3 C 59 % 1030,4 hPa 0,0 l/m 0 min 0 min 301 W/m 12,9 km/h (3 Bft) 91,49 %
30.03.2020 13:44 7,7 C 8,9 C 8,3 C 59 % 1030,3 hPa 0,0 l/m 0 min 0 min 295 W/m 12,9 km/h (3 Bft) 97,87 %
30.03.2020 13:46 7,8 C 8,9 C 8,3 C 58 % 1030,3 hPa 0,0 l/m 0 min 0 min 295 W/m 9,7 km/h (2 Bft) 97,83 %
30.03.2020 13:48 7,7 C 8,9 C 8,3 C 58 % 1030,2 hPa 0,0 l/m 0 min 0 min 278 W/m 9,7 km/h (2 Bft) 95,74 %
30.03.2020 13:50 7,7 C 8,9 C 8,3 C 58 % 1030,2 hPa 0,0 l/m 0 min 0 min 255 W/m 12,9 km/h (3 Bft) 95,74 %
30.03.2020 13:52 7,7 C 8,9 C 8,3 C 58 % 1030,2 hPa 0,0 l/m 0 min 0 min 254 W/m 9,7 km/h (2 Bft) 95,74 %
30.03.2020 13:54 7,7 C 8,9 C 8,3 C 59 % 1030,2 hPa 0,0 l/m 0 min 0 min 286 W/m 12,9 km/h (3 Bft) 95,74 %
30.03.2020 13:56 7,7 C 10,0 C 8,9 C 59 % 1030,1 hPa 0,0 l/m 2 min 0 min 395 W/m 12,9 km/h (3 Bft) 95,74 %
30.03.2020 13:58 7,8 C 10,6 C 9,4 C 60 % 1030,2 hPa 0,0 l/m 2 min 0 min 436 W/m 12,9 km/h (3 Bft) 95,65 %
30.03.2020 14:00 7,8 C 11,1 C 10,0 C 59 % 1030,1 hPa 0,0 l/m 2 min 0 min 486 W/m 3,2 km/h (1 Bft) 93,62 %
30.03.2020 14:02 7,8 C 11,7 C 10,0 C 59 % 1030,1 hPa 0,0 l/m 2 min 0 min 522 W/m 9,7 km/h (2 Bft) 95,74 %
30.03.2020 14:04 7,9 C 11,7 C 10,6 C 59 % 1030,1 hPa 0,0 l/m 2 min 0 min 423 W/m 12,9 km/h (3 Bft) 95,74 %
30.03.2020 14:06 7,9 C 12,2 C 10,6 C 58 % 1030,0 hPa 0,0 l/m 2 min 0 min 404 W/m 16,1 km/h (3 Bft) 95,74 %
30.03.2020 14:08 8,0 C 13,9 C 12,8 C 59 % 1030,0 hPa 0,0 l/m 2 min 0 min 441 W/m 16,1 km/h (3 Bft) 95,74 %
30.03.2020 14:10 8,2 C 13,9 C 13,3 C 59 % 1029,9 hPa 0,0 l/m 2 min 0 min 481 W/m 16,1 km/h (3 Bft) 95,65 %
30.03.2020 14:12 8,2 C 12,2 C 11,7 C 58 % 1029,9 hPa 0,0 l/m 2 min 0 min 498 W/m 6,4 km/h (2 Bft) 95,74 %
30.03.2020 14:14 8,3 C 11,7 C 10,6 C 58 % 1029,9 hPa 0,0 l/m 2 min 0 min 331 W/m 16,1 km/h (3 Bft) 93,62 %
30.03.2020 14:16 8,3 C 11,7 C 10,0 C 58 % 1029,8 hPa 0,0 l/m 2 min 0 min 340 W/m 12,9 km/h (3 Bft) 93,62 %
30.03.2020 14:18 8,3 C 11,1 C 10,0 C 57 % 1029,9 hPa 0,0 l/m 0 min 0 min 300 W/m 22,5 km/h (4 Bft) 95,74 %
30.03.2020 14:20 8,3 C 10,6 C 10,0 C 58 % 1029,8 hPa 0,0 l/m 0 min 0 min 310 W/m 22,5 km/h (4 Bft) 95,74 %
30.03.2020 14:22 8,3 C 12,2 C 11,7 C 58 % 1029,8 hPa 0,0 l/m 2 min 0 min 406 W/m 9,7 km/h (2 Bft) 95,65 %
30.03.2020 14:24 8,4 C 14,4 C 13,9 C 58 % 1029,7 hPa 0,0 l/m 2 min 0 min 845 W/m 9,7 km/h (2 Bft) 95,74 %
30.03.2020 14:26 8,4 C 16,1 C 15,6 C 58 % 1029,7 hPa 0,0 l/m 2 min 0 min 678 W/m 9,7 km/h (2 Bft) 95,74 %
30.03.2020 14:28 8,7 C 17,2 C 17,2 C 59 % 1029,7 hPa 0,0 l/m 2 min 0 min 677 W/m 6,4 km/h (2 Bft) 91,49 %
30.03.2020 14:30 8,8 C 18,3 C 18,3 C 59 % 1029,6 hPa 0,0 l/m 2 min 0 min 675 W/m 16,1 km/h (3 Bft) 93,62 %
30.03.2020 14:32 9,1 C 17,2 C 16,7 C 59 % 1029,6 hPa 0,0 l/m 2 min 0 min 674 W/m 12,9 km/h (3 Bft) 93,48 %
30.03.2020 14:34 9,3 C 16,1 C 15,0 C 59 % 1029,6 hPa 0,0 l/m 2 min 0 min 673 W/m 9,7 km/h (2 Bft) 95,74 %
30.03.2020 14:36 9,4 C 13,9 C 12,8 C 57 % 1029,6 hPa 0,0 l/m 2 min 0 min 381 W/m 16,1 km/h (3 Bft) 95,74 %
30.03.2020 14:38 9,4 C 12,2 C 11,1 C 55 % 1029,6 hPa 0,0 l/m 2 min 0 min 417 W/m 12,9 km/h (3 Bft) 93,62 %
30.03.2020 14:40 9,4 C 11,7 C 10,6 C 55 % 1029,6 hPa 0,0 l/m 2 min 0 min 428 W/m 19,3 km/h (3 Bft) 95,74 %
30.03.2020 14:42 9,4 C 11,1 C 10,6 C 56 % 1029,5 hPa 0,0 l/m 2 min 0 min 394 W/m 12,9 km/h (3 Bft) 95,74 %
30.03.2020 14:44 9,4 C 11,1 C 10,0 C 57 % 1029,5 hPa 0,0 l/m 2 min 0 min 378 W/m 22,5 km/h (4 Bft) 91,30 %
30.03.2020 14:46 9,3 C 10,6 C 10,0 C 57 % 1029,5 hPa 0,0 l/m 2 min 0 min 385 W/m 22,5 km/h (4 Bft) 95,74 %
30.03.2020 14:48 9,2 C 10,0 C 9,4 C 56 % 1029,5 hPa 0,0 l/m 2 min 0 min 419 W/m 16,1 km/h (3 Bft) 95,74 %
30.03.2020 14:50 9,1 C 11,1 C 10,0 C 57 % 1029,4 hPa 0,0 l/m 2 min 0 min 466 W/m 12,9 km/h (3 Bft) 95,74 %
30.03.2020 14:52 9,1 C 10,6 C 10,0 C 58 % 1029,5 hPa 0,0 l/m 2 min 0 min 380 W/m 12,9 km/h (3 Bft) 95,74 %
30.03.2020 14:54 9,1 C 10,6 C 9,4 C 58 % 1029,4 hPa 0,0 l/m 2 min 0 min 337 W/m 16,1 km/h (3 Bft) 95,74 %
30.03.2020 14:56 9,0 C 10,6 C 10,0 C 58 % 1029,4 hPa 0,0 l/m 2 min 0 min 364 W/m 16,1 km/h (3 Bft) 95,65 %
30.03.2020 14:58 9,0 C 11,1 C 10,0 C 58 % 1029,4 hPa 0,0 l/m 2 min 0 min 415 W/m 22,5 km/h (4 Bft) 95,74 %
30.03.2020 15:00 9,0 C 11,1 C 10,6 C 58 % 1029,4 hPa 0,0 l/m 2 min 0 min 451 W/m 19,3 km/h (3 Bft) 95,74 %
30.03.2020 15:02 9,1 C 12,2 C 11,1 C 59 % 1029,4 hPa 0,0 l/m 2 min 0 min 504 W/m 19,3 km/h (3 Bft) 93,62 %
30.03.2020 15:04 9,1 C 12,2 C 10,6 C 59 % 1029,4 hPa 0,0 l/m 2 min 0 min 455 W/m 9,7 km/h (2 Bft) 97,87 %
30.03.2020 15:06 9,1 C 11,7 C 10,0 C 58 % 1029,3 hPa 0,0 l/m 2 min 0 min 390 W/m 12,9 km/h (3 Bft) 97,87 %
30.03.2020 15:08 9,1 C 11,1 C 10,0 C 58 % 1029,2 hPa 0,0 l/m 2 min 0 min 380 W/m 6,4 km/h (2 Bft) 97,87 %
30.03.2020 15:10 9,2 C 11,1 C 10,0 C 59 % 1029,2 hPa 0,0 l/m 2 min 0 min 354 W/m 9,7 km/h (2 Bft) 97,83 %
30.03.2020 15:12 9,2 C 11,7 C 10,0 C 60 % 1029,2 hPa 0,0 l/m 2 min 0 min 386 W/m 9,7 km/h (2 Bft) 93,62 %
30.03.2020 15:14 9,2 C 11,7 C 10,0 C 59 % 1029,2 hPa 0,0 l/m 2 min 0 min 393 W/m 22,5 km/h (4 Bft) 97,87 %
30.03.2020 15:16 9,2 C 11,1 C 10,0 C 59 % 1029,2 hPa 0,0 l/m 2 min 0 min 404 W/m 25,7 km/h (4 Bft) 95,74 %
30.03.2020 15:18 9,1 C 10,6 C 10,0 C 59 % 1029,1 hPa 0,0 l/m 2 min 0 min 330 W/m 19,3 km/h (3 Bft) 97,87 %
30.03.2020 15:20 9,1 C 10,6 C 10,0 C 59 % 1029,1 hPa 0,0 l/m 0 min 0 min 291 W/m 16,1 km/h (3 Bft) 97,83 %
30.03.2020 15:22 9,1 C 11,1 C 10,0 C 60 % 1029,0 hPa 0,0 l/m 2 min 0 min 307 W/m 6,4 km/h (2 Bft) 97,87 %
30.03.2020 15:24 9,1 C 12,2 C 10,0 C 60 % 1029,0 hPa 0,0 l/m 2 min 0 min 341 W/m 16,1 km/h (3 Bft) 97,87 %
30.03.2020 15:26 9,2 C 11,7 C 9,4 C 59 % 1029,0 hPa 0,0 l/m 2 min 0 min 345 W/m 19,3 km/h (3 Bft) 95,74 %
30.03.2020 15:28 9,2 C 11,1 C 9,4 C 58 % 1029,1 hPa 0,0 l/m 2 min 0 min 332 W/m 12,9 km/h (3 Bft) 97,87 %
30.03.2020 15:30 9,2 C 12,8 C 9,4 C 59 % 1029,0 hPa 0,0 l/m 2 min 0 min 607 W/m 9,7 km/h (2 Bft) 97,87 %
30.03.2020 15:32 9,2 C 11,7 C 9,4 C 58 % 1028,9 hPa 0,0 l/m 2 min 0 min 445 W/m 12,9 km/h (3 Bft) 97,83 %
30.03.2020 15:34 9,2 C 11,1 C 9,4 C 59 % 1028,9 hPa 0,0 l/m 0 min 0 min 287 W/m 9,7 km/h (2 Bft) 97,87 %
30.03.2020 15:36 9,2 C 10,6 C 9,4 C 60 % 1028,9 hPa 0,0 l/m 2 min 0 min 310 W/m 12,9 km/h (3 Bft) 97,87 %
30.03.2020 15:38 9,2 C 11,7 C 9,4 C 60 % 1028,8 hPa 0,0 l/m 2 min 0 min 371 W/m 3,2 km/h (1 Bft) 97,87 %
30.03.2020 15:40 9,2 C 12,2 C 10,0 C 59 % 1028,8 hPa 0,0 l/m 2 min 0 min 462 W/m 9,7 km/h (2 Bft) 97,87 %
30.03.2020 15:42 9,3 C 12,2 C 10,0 C 60 % 1028,8 hPa 0,0 l/m 2 min 0 min 440 W/m 9,7 km/h (2 Bft) 97,83 %
30.03.2020 15:44 9,3 C 11,1 C 9,4 C 60 % 1028,7 hPa 0,0 l/m 2 min 0 min 307 W/m 16,1 km/h (3 Bft) 97,87 %
30.03.2020 15:46 9,3 C 10,6 C 9,4 C 61 % 1028,7 hPa 0,0 l/m 2 min 0 min 303 W/m 22,5 km/h (4 Bft) 95,74 %
30.03.2020 15:48 9,3 C 10,6 C 9,4 C 61 % 1028,8 hPa 0,0 l/m 0 min 0 min 286 W/m 19,3 km/h (3 Bft) 97,87 %
30.03.2020 15:50 9,2 C 12,2 C 9,4 C 61 % 1028,6 hPa 0,0 l/m 2 min 0 min 426 W/m 9,7 km/h (2 Bft) 100,00 %
30.03.2020 15:52 9,3 C 13,3 C 9,4 C 61 % 1028,5 hPa 0,0 l/m 2 min 0 min 737 W/m 3,2 km/h (1 Bft) 100,00 %
30.03.2020 15:54 9,3 C 13,9 C 9,4 C 61 % 1028,4 hPa 0,0 l/m 2 min 0 min 728 W/m 16,1 km/h (3 Bft) 100,00 %
30.03.2020 15:56 9,4 C 14,4 C 9,4 C 62 % 1028,5 hPa 0,0 l/m 2 min 0 min 719 W/m 19,3 km/h (3 Bft) 100,00 %
30.03.2020 15:58 9,4 C 12,8 C 9,4 C 62 % 1028,5 hPa 0,0 l/m 2 min 0 min 358 W/m 29,0 km/h (5 Bft) 100,00 %
30.03.2020 16:00 9,4 C 11,1 C 8,9 C 61 % 1028,5 hPa 0,0 l/m 0 min 0 min 243 W/m 32,2 km/h (5 Bft) 100,00 %
30.03.2020 16:02 9,4 C 13,3 C 9,4 C 62 % 1028,5 hPa 0,0 l/m 2 min 0 min 457 W/m 12,9 km/h (3 Bft) 100,00 %
30.03.2020 16:04 9,4 C 13,9 C 9,4 C 62 % 1028,5 hPa 0,0 l/m 2 min 0 min 756 W/m 16,1 km/h (3 Bft) 100,00 %
30.03.2020 16:06 9,5 C 13,9 C 10,0 C 62 % 1028,4 hPa 0,0 l/m 2 min 0 min 534 W/m 29,0 km/h (5 Bft) 100,00 %
30.03.2020 16:08 9,6 C 14,4 C 10,6 C 62 % 1028,4 hPa 0,0 l/m 2 min 0 min 744 W/m 12,9 km/h (3 Bft) 100,00 %
30.03.2020 16:10 9,7 C 13,9 C 10,0 C 62 % 1028,3 hPa 0,0 l/m 2 min 0 min 418 W/m 9,7 km/h (2 Bft) 100,00 %
30.03.2020 16:12 9,8 C 12,8 C 10,0 C 61 % 1028,3 hPa 0,0 l/m 2 min 0 min 308 W/m 19,3 km/h (3 Bft) 100,00 %
30.03.2020 16:14 9,8 C 12,8 C 10,0 C 61 % 1028,4 hPa 0,0 l/m 2 min 0 min 287 W/m 19,3 km/h (3 Bft) 100,00 %
30.03.2020 16:16 9,8 C 12,2 C 10,0 C 62 % 1028,3 hPa 0,0 l/m 2 min 0 min 341 W/m 16,1 km/h (3 Bft) 100,00 %
30.03.2020 16:18 9,8 C 11,1 C 9,4 C 62 % 1028,2 hPa 0,0 l/m 0 min 0 min 245 W/m 22,5 km/h (4 Bft) 95,65 %
30.03.2020 16:20 9,7 C 10,6 C 9,4 C 61 % 1028,2 hPa 0,0 l/m 0 min 0 min 214 W/m 9,7 km/h (2 Bft) 97,87 %
30.03.2020 16:22 9,7 C 10,6 C 9,4 C 61 % 1028,2 hPa 0,0 l/m 2 min 0 min 289 W/m 16,1 km/h (3 Bft) 97,87 %
30.03.2020 16:24 9,7 C 11,1 C 9,4 C 62 % 1028,2 hPa 0,0 l/m 2 min 0 min 314 W/m 16,1 km/h (3 Bft) 95,74 %
30.03.2020 16:26 9,6 C 11,1 C 9,4 C 62 % 1028,2 hPa 0,0 l/m 2 min 0 min 335 W/m 12,9 km/h (3 Bft) 97,87 %
30.03.2020 16:28 9,6 C 11,7 C 9,4 C 62 % 1028,1 hPa 0,0 l/m 2 min 0 min 473 W/m 12,9 km/h (3 Bft) 95,74 %
30.03.2020 16:30 9,6 C 11,1 C 9,4 C 62 % 1028,1 hPa 0,0 l/m 0 min 0 min 216 W/m 19,3 km/h (3 Bft) 95,65 %
30.03.2020 16:32 9,6 C 10,0 C 9,4 C 62 % 1028,0 hPa 0,0 l/m 0 min 0 min 191 W/m 19,3 km/h (3 Bft) 97,87 %
30.03.2020 16:34 9,5 C 9,4 C 8,9 C 62 % 1028,0 hPa 0,0 l/m 0 min 0 min 181 W/m 16,1 km/h (3 Bft) 97,87 %
30.03.2020 16:36 9,5 C 9,4 C 8,9 C 62 % 1028,0 hPa 0,0 l/m 0 min 0 min 192 W/m 0,0 km/h (0 Bft) 97,87 %
30.03.2020 16:38 9,4 C 9,4 C 8,9 C 63 % 1028,0 hPa 0,0 l/m 0 min 0 min 177 W/m 9,7 km/h (2 Bft) 97,87 %
30.03.2020 16:40 9,4 C 9,4 C 8,9 C 63 % 1027,9 hPa 0,0 l/m 0 min 0 min 175 W/m 6,4 km/h (2 Bft) 97,87 %
30.03.2020 16:42 9,3 C 9,4 C 8,9 C 63 % 1027,9 hPa 0,0 l/m 0 min 0 min 205 W/m 16,1 km/h (3 Bft) 97,83 %
30.03.2020 16:44 9,3 C 10,0 C 9,4 C 64 % 1027,9 hPa 0,0 l/m 2 min 0 min 259 W/m 6,4 km/h (2 Bft) 97,87 %
30.03.2020 16:46 9,3 C 10,0 C 9,4 C 64 % 1027,8 hPa 0,0 l/m 2 min 0 min 274 W/m 12,9 km/h (3 Bft) 93,62 %
30.03.2020 16:48 9,3 C 11,7 C 10,0 C 64 % 1027,8 hPa 0,0 l/m 2 min 0 min 311 W/m 6,4 km/h (2 Bft) 95,74 %
30.03.2020 16:50 9,4 C 12,8 C 11,1 C 66 % 1027,8 hPa 0,0 l/m 2 min 0 min 544 W/m 12,9 km/h (3 Bft) 95,74 %
30.03.2020 16:52 9,5 C 11,7 C 10,6 C 65 % 1027,8 hPa 0,0 l/m 2 min 0 min 470 W/m 9,7 km/h (2 Bft) 93,48 %
30.03.2020 16:54 9,6 C 10,6 C 10,0 C 64 % 1027,8 hPa 0,0 l/m 2 min 0 min 248 W/m 12,9 km/h (3 Bft) 95,74 %
30.03.2020 16:56 9,5 C 10,0 C 9,4 C 64 % 1027,8 hPa 0,0 l/m 0 min 0 min 190 W/m 12,9 km/h (3 Bft) 95,74 %
30.03.2020 16:58 9,5 C 10,0 C 9,4 C 64 % 1027,7 hPa 0,0 l/m 0 min 0 min 184 W/m 12,9 km/h (3 Bft) 95,74 %
30.03.2020 17:00 9,5 C 10,6 C 9,4 C 64 % 1027,7 hPa 0,0 l/m 0 min 0 min 211 W/m 12,9 km/h (3 Bft) 97,87 %
30.03.2020 17:02 9,5 C 11,1 C 9,4 C 64 % 1027,7 hPa 0,0 l/m 0 min 0 min 221 W/m 19,3 km/h (3 Bft) 95,74 %
30.03.2020 17:04 9,5 C 10,6 C 9,4 C 64 % 1027,7 hPa 0,0 l/m 2 min 0 min 223 W/m 19,3 km/h (3 Bft) 94,59 %
30.03.2020 17:06 9,5 C 10,6 C 10,6 C 65 % 1027,6 hPa 0,0 l/m 2 min 0 min 223 W/m 16,1 km/h (3 Bft) 97,87 %
30.03.2020 17:08 9,6 C 11,7 C 11,1 C 65 % 1027,5 hPa 0,0 l/m 2 min 0 min 308 W/m 9,7 km/h (2 Bft) 97,87 %
30.03.2020 17:10 9,6 C 13,3 C 12,8 C 65 % 1027,6 hPa 0,0 l/m 2 min 0 min 513 W/m 16,1 km/h (3 Bft) 97,87 %
30.03.2020 17:12 9,7 C 13,9 C 13,3 C 65 % 1027,6 hPa 0,0 l/m 2 min 0 min 582 W/m 16,1 km/h (3 Bft) 97,87 %
30.03.2020 17:14 9,8 C 12,2 C 11,7 C 65 % 1027,6 hPa 0,0 l/m 2 min 0 min 249 W/m 16,1 km/h (3 Bft) 97,87 %
30.03.2020 17:16 9,8 C 11,1 C 10,6 C 64 % 1027,5 hPa 0,0 l/m 0 min 0 min 174 W/m 9,7 km/h (2 Bft) 97,83 %
30.03.2020 17:18 9,8 C 10,6 C 10,0 C 64 % 1027,5 hPa 0,0 l/m 0 min 0 min 155 W/m 0,0 km/h (0 Bft) 97,87 %
30.03.2020 17:20 9,8 C 10,0 C 9,4 C 64 % 1027,5 hPa 0,0 l/m 0 min 0 min 153 W/m 6,4 km/h (2 Bft) 97,87 %
30.03.2020 17:22 9,8 C 10,0 C 9,4 C 64 % 1027,5 hPa 0,0 l/m 0 min 0 min 148 W/m 6,4 km/h (2 Bft) 95,74 %
30.03.2020 17:24 9,8 C 9,4 C 9,4 C 64 % 1027,5 hPa 0,0 l/m 0 min 0 min 144 W/m 9,7 km/h (2 Bft) 97,87 %
30.03.2020 17:26 9,7 C 11,1 C 9,4 C 64 % 1027,4 hPa 0,0 l/m 0 min 0 min 190 W/m 19,3 km/h (3 Bft) 100,00 %
30.03.2020 17:28 9,7 C 11,1 C 9,4 C 64 % 1027,4 hPa 0,0 l/m 2 min 0 min 469 W/m 12,9 km/h (3 Bft) 100,00 %
30.03.2020 17:30 9,7 C 10,6 C 9,4 C 64 % 1027,4 hPa 0,0 l/m 2 min 0 min 215 W/m 12,9 km/h (3 Bft) 100,00 %
30.03.2020 17:32 9,7 C 10,0 C 8,9 C 64 % 1027,3 hPa 0,0 l/m 0 min 0 min 174 W/m 9,7 km/h (2 Bft) 97,87 %
30.03.2020 17:34 9,7 C 12,2 C 9,4 C 64 % 1027,3 hPa 0,0 l/m 2 min 0 min 384 W/m 12,9 km/h (3 Bft) 100,00 %
30.03.2020 17:36 9,7 C 11,1 C 9,4 C 64 % 1027,2 hPa 0,0 l/m 2 min 0 min 424 W/m 19,3 km/h (3 Bft) 100,00 %
30.03.2020 17:38 9,7 C 10,6 C 9,4 C 65 % 1027,2 hPa 0,0 l/m 2 min 0 min 185 W/m 6,4 km/h (2 Bft) 100,00 %
30.03.2020 17:40 9,7 C 11,1 C 9,4 C 65 % 1027,2 hPa 0,0 l/m 0 min 0 min 175 W/m 6,4 km/h (2 Bft) 100,00 %
30.03.2020 17:42 9,7 C 11,1 C 9,4 C 65 % 1027,1 hPa 0,0 l/m 0 min 0 min 157 W/m 3,2 km/h (1 Bft) 100,00 %
30.03.2020 17:44 9,8 C 10,0 C 8,9 C 65 % 1027,1 hPa 0,0 l/m 0 min 0 min 105 W/m 12,9 km/h (3 Bft) 100,00 %
30.03.2020 17:46 9,7 C 11,7 C 8,9 C 65 % 1027,1 hPa 0,0 l/m 0 min 0 min 172 W/m 6,4 km/h (2 Bft) 97,87 %
30.03.2020 17:48 9,8 C 12,2 C 8,9 C 64 % 1027,1 hPa 0,0 l/m 2 min 0 min 368 W/m 12,9 km/h (3 Bft) 100,00 %
30.03.2020 17:50 9,8 C 12,2 C 8,9 C 64 % 1027,0 hPa 0,0 l/m 2 min 0 min 370 W/m 0,0 km/h (0 Bft) 100,00 %
30.03.2020 17:52 9,8 C 11,1 C 8,9 C 65 % 1027,0 hPa 0,0 l/m 2 min 0 min 222 W/m 19,3 km/h (3 Bft) 100,00 %
30.03.2020 17:54 9,8 C 11,1 C 8,9 C 65 % 1027,0 hPa 0,0 l/m 2 min 0 min 249 W/m 12,9 km/h (3 Bft) 95,74 %
30.03.2020 17:56 9,8 C 10,0 C 8,3 C 65 % 1027,1 hPa 0,0 l/m 2 min 0 min 170 W/m 16,1 km/h (3 Bft) 100,00 %
30.03.2020 17:58 9,7 C 10,6 C 8,3 C 64 % 1027,1 hPa 0,0 l/m 2 min 0 min 168 W/m 16,1 km/h (3 Bft) 100,00 %
30.03.2020 18:00 9,7 C 11,1 C 8,3 C 64 % 1027,0 hPa 0,0 l/m 2 min 0 min 343 W/m 12,9 km/h (3 Bft) 100,00 %
30.03.2020 18:02 9,7 C 11,7 C 8,3 C 65 % 1027,0 hPa 0,0 l/m 2 min 0 min 366 W/m 9,7 km/h (2 Bft) 100,00 %
30.03.2020 18:04 9,7 C 10,6 C 8,9 C 65 % 1027,1 hPa 0,0 l/m 2 min 0 min 361 W/m 6,4 km/h (2 Bft) 100,00 %
30.03.2020 18:08 9,7 C 10,0 C 8,9 C 65 % 1027,1 hPa 0,0 l/m 4 min 0 min 179 W/m 16,1 km/h (3 Bft) 100,00 %
30.03.2020 18:10 9,6 C 9,4 C 8,9 C 65 % 1027,0 hPa 0,0 l/m 0 min 0 min 114 W/m 16,1 km/h (3 Bft) 100,00 %
30.03.2020 18:12 9,6 C 9,4 C 8,9 C 65 % 1027,1 hPa 0,0 l/m 0 min 0 min 113 W/m 9,7 km/h (2 Bft) 97,87 %
30.03.2020 18:14 9,6 C 9,4 C 8,9 C 65 % 1027,0 hPa 0,0 l/m 0 min 0 min 122 W/m 16,1 km/h (3 Bft) 97,83 %
30.03.2020 18:16 9,6 C 9,4 C 8,3 C 65 % 1027,0 hPa 0,0 l/m 0 min 0 min 135 W/m 16,1 km/h (3 Bft) 95,74 %
30.03.2020 18:18 9,5 C 9,4 C 8,9 C 65 % 1027,0 hPa 0,0 l/m 2 min 0 min 140 W/m 22,5 km/h (4 Bft) 97,87 %
30.03.2020 18:20 9,4 C 9,4 C 8,9 C 65 % 1026,9 hPa 0,0 l/m 0 min 0 min 120 W/m 16,1 km/h (3 Bft) 100,00 %
30.03.2020 18:22 9,4 C 8,9 C 8,3 C 65 % 1026,9 hPa 0,0 l/m 0 min 0 min 107 W/m 12,9 km/h (3 Bft) 100,00 %
30.03.2020 18:24 9,3 C 8,9 C 8,3 C 65 % 1027,0 hPa 0,0 l/m 0 min 0 min 119 W/m 22,5 km/h (4 Bft) 100,00 %
30.03.2020 18:26 9,3 C 8,9 C 8,3 C 65 % 1027,0 hPa 0,0 l/m 2 min 0 min 145 W/m 16,1 km/h (3 Bft) 97,83 %
30.03.2020 18:28 9,3 C 8,9 C 8,3 C 66 % 1026,9 hPa 0,0 l/m 2 min 0 min 143 W/m 25,7 km/h (4 Bft) 100,00 %
30.03.2020 18:30 9,3 C 8,9 C 8,9 C 66 % 1026,9 hPa 0,0 l/m 2 min 0 min 136 W/m 12,9 km/h (3 Bft) 100,00 %
30.03.2020 18:32 9,2 C 8,9 C 8,3 C 66 % 1027,0 hPa 0,0 l/m 2 min 0 min 143 W/m 12,9 km/h (3 Bft) 95,74 %
30.03.2020 18:34 9,2 C 8,9 C 8,9 C 67 % 1027,0 hPa 0,0 l/m 2 min 0 min 170 W/m 16,1 km/h (3 Bft) 100,00 %
30.03.2020 18:36 9,2 C 9,4 C 8,9 C 67 % 1027,0 hPa 0,0 l/m 2 min 0 min 181 W/m 19,3 km/h (3 Bft) 100,00 %
30.03.2020 18:38 9,2 C 9,4 C 8,9 C 67 % 1026,9 hPa 0,0 l/m 2 min 0 min 155 W/m 16,1 km/h (3 Bft) 95,65 %
30.03.2020 18:40 9,2 C 8,9 C 8,3 C 68 % 1026,9 hPa 0,0 l/m 2 min 0 min 117 W/m 16,1 km/h (3 Bft) 97,87 %
30.03.2020 18:42 9,1 C 8,9 C 8,3 C 68 % 1026,9 hPa 0,0 l/m 0 min 0 min 89 W/m 16,1 km/h (3 Bft) 97,87 %
30.03.2020 18:44 9,1 C 8,3 C 8,3 C 68 % 1026,9 hPa 0,0 l/m 0 min 0 min 68 W/m 16,1 km/h (3 Bft) 97,87 %
30.03.2020 18:46 9,1 C 8,3 C 8,3 C 68 % 1026,9 hPa 0,0 l/m 0 min 0 min 53 W/m 9,7 km/h (2 Bft) 100,00 %
30.03.2020 18:48 9,1 C 8,3 C 7,8 C 69 % 1026,9 hPa 0,0 l/m 0 min 0 min 46 W/m 0,0 km/h (0 Bft) 97,87 %
30.03.2020 18:50 9,0 C 7,8 C 7,8 C 69 % 1026,9 hPa 0,0 l/m 0 min 0 min 49 W/m 19,3 km/h (3 Bft) 100,00 %
30.03.2020 18:52 9,0 C 7,8 C 7,8 C 69 % 1026,9 hPa 0,0 l/m 0 min 0 min 56 W/m 16,1 km/h (3 Bft) 100,00 %
30.03.2020 18:54 8,9 C 7,8 C 7,8 C 69 % 1026,9 hPa 0,0 l/m 0 min 0 min 55 W/m 12,9 km/h (3 Bft) 100,00 %
30.03.2020 18:56 8,9 C 7,8 C 7,8 C 69 % 1026,9 hPa 0,0 l/m 0 min 0 min 53 W/m 6,4 km/h (2 Bft) 97,87 %
30.03.2020 18:58 8,8 C 7,8 C 7,8 C 69 % 1026,9 hPa 0,0 l/m 0 min 0 min 51 W/m 19,3 km/h (3 Bft) 95,74 %
30.03.2020 19:00 8,8 C 7,8 C 7,8 C 69 % 1026,9 hPa 0,0 l/m 0 min 0 min 53 W/m 19,3 km/h (3 Bft) 95,65 %
30.03.2020 19:02 8,7 C 7,8 C 7,8 C 69 % 1026,9 hPa 0,0 l/m 0 min 0 min 53 W/m 19,3 km/h (3 Bft) 97,87 %
30.03.2020 19:04 8,7 C 7,8 C 7,8 C 68 % 1026,9 hPa 0,0 l/m 0 min 0 min 60 W/m 19,3 km/h (3 Bft) 93,62 %
30.03.2020 19:06 8,7 C 7,8 C 7,8 C 69 % 1026,9 hPa 0,0 l/m 0 min 0 min 61 W/m 12,9 km/h (3 Bft) 97,87 %
30.03.2020 19:08 8,6 C 7,8 C 7,8 C 69 % 1026,9 hPa 0,0 l/m 2 min 0 min 73 W/m 16,1 km/h (3 Bft) 95,74 %
30.03.2020 19:10 8,6 C 8,3 C 7,8 C 69 % 1026,9 hPa 0,0 l/m 2 min 0 min 74 W/m 12,9 km/h (3 Bft) 97,87 %
30.03.2020 19:12 8,6 C 7,8 C 7,8 C 69 % 1026,9 hPa 0,0 l/m 0 min 0 min 60 W/m 19,3 km/h (3 Bft) 97,83 %
30.03.2020 19:14 8,6 C 7,8 C 7,8 C 69 % 1026,9 hPa 0,0 l/m 0 min 0 min 48 W/m 6,4 km/h (2 Bft) 95,74 %
30.03.2020 19:16 8,6 C 7,8 C 7,2 C 69 % 1026,9 hPa 0,0 l/m 0 min 0 min 42 W/m 9,7 km/h (2 Bft) 95,74 %
30.03.2020 19:18 8,6 C 7,8 C 7,2 C 70 % 1026,8 hPa 0,0 l/m 0 min 0 min 39 W/m 12,9 km/h (3 Bft) 93,62 %
30.03.2020 19:20 8,5 C 7,8 C 7,2 C 70 % 1026,9 hPa 0,0 l/m 0 min 0 min 39 W/m 16,1 km/h (3 Bft) 95,74 %
30.03.2020 19:22 8,5 C 7,8 C 7,2 C 69 % 1026,9 hPa 0,0 l/m 0 min 0 min 35 W/m 22,5 km/h (4 Bft) 91,49 %
30.03.2020 19:24 8,4 C 7,2 C 7,2 C 70 % 1026,9 hPa 0,0 l/m 0 min 0 min 31 W/m 19,3 km/h (3 Bft) 93,48 %
30.03.2020 19:26 8,4 C 7,2 C 7,2 C 69 % 1026,9 hPa 0,0 l/m 0 min 0 min 25 W/m 16,1 km/h (3 Bft) 91,49 %
30.03.2020 19:28 8,4 C 7,2 C 6,7 C 70 % 1026,9 hPa 0,0 l/m 0 min 0 min 24 W/m 19,3 km/h (3 Bft) 93,62 %
30.03.2020 19:30 8,3 C 7,2 C 6,7 C 70 % 1026,9 hPa 0,0 l/m 0 min 0 min 24 W/m 16,1 km/h (3 Bft) 93,62 %
30.03.2020 19:32 8,3 C 7,2 C 6,7 C 71 % 1027,0 hPa 0,0 l/m 0 min 0 min 22 W/m 19,3 km/h (3 Bft) 93,62 %
30.03.2020 19:34 8,2 C 7,2 C 6,7 C 71 % 1027,0 hPa 0,0 l/m 0 min 0 min 21 W/m 16,1 km/h (3 Bft) 91,49 %
30.03.2020 19:36 8,2 C 7,2 C 6,7 C 71 % 1027,0 hPa 0,0 l/m 0 min 0 min 22 W/m 16,1 km/h (3 Bft) 95,65 %
30.03.2020 19:38 8,1 C 7,2 C 6,7 C 71 % 1027,0 hPa 0,0 l/m 0 min 0 min 25 W/m 12,9 km/h (3 Bft) 95,74 %
30.03.2020 19:40 8,1 C 6,7 C 6,7 C 72 % 1027,0 hPa 0,0 l/m 2 min 0 min 26 W/m 16,1 km/h (3 Bft) 91,49 %
30.03.2020 19:42 8,1 C 6,7 C 6,7 C 72 % 1026,9 hPa 0,0 l/m 2 min 0 min 25 W/m 9,7 km/h (2 Bft) 93,62 %
30.03.2020 19:44 8,0 C 6,7 C 6,1 C 72 % 1027,0 hPa 0,0 l/m 2 min 0 min 24 W/m 12,9 km/h (3 Bft) 89,36 %
30.03.2020 19:46 7,9 C 6,7 C 6,1 C 72 % 1026,9 hPa 0,0 l/m 2 min 0 min 20 W/m 9,7 km/h (2 Bft) 93,48 %
30.03.2020 19:48 7,9 C 6,7 C 6,1 C 72 % 1026,9 hPa 0,0 l/m 0 min 0 min 18 W/m 9,7 km/h (2 Bft) 93,62 %
30.03.2020 19:50 7,9 C 6,7 C 6,1 C 72 % 1026,9 hPa 0,0 l/m 0 min 0 min 15 W/m 9,7 km/h (2 Bft) 93,62 %
30.03.2020 19:52 7,8 C 6,7 C 6,1 C 72 % 1027,0 hPa 0,0 l/m 0 min 0 min 12 W/m 16,1 km/h (3 Bft) 93,62 %
30.03.2020 19:54 7,8 C 6,1 C 6,1 C 73 % 1027,0 hPa 0,0 l/m 0 min 0 min 12 W/m 9,7 km/h (2 Bft) 91,49 %
30.03.2020 19:56 7,7 C 6,1 C 6,1 C 73 % 1027,0 hPa 0,0 l/m 0 min 0 min 11 W/m 6,4 km/h (2 Bft) 93,62 %
30.03.2020 19:58 7,7 C 6,1 C 6,1 C 73 % 1027,0 hPa 0,0 l/m 0 min 0 min 9 W/m 6,4 km/h (2 Bft) 91,30 %
30.03.2020 20:00 7,7 C 6,1 C 6,1 C 73 % 1027,0 hPa 0,0 l/m 0 min 0 min 7 W/m 9,7 km/h (2 Bft) 95,74 %
30.03.2020 20:02 7,6 C 6,1 C 6,1 C 73 % 1027,0 hPa 0,0 l/m 0 min 0 min 6 W/m 9,7 km/h (2 Bft) 95,74 %
30.03.2020 20:04 7,6 C 6,1 C 6,1 C 73 % 1027,0 hPa 0,0 l/m 0 min 0 min 1 W/m 9,7 km/h (2 Bft) 97,87 %
30.03.2020 20:06 7,6 C 6,1 C 6,1 C 74 % 1026,9 hPa 0,0 l/m 0 min 0 min 0 W/m 12,9 km/h (3 Bft) 97,87 %
30.03.2020 20:08 7,6 C 6,1 C 6,1 C 74 % 1026,9 hPa 0,0 l/m 0 min 0 min 0 W/m 16,1 km/h (3 Bft) 97,87 %
30.03.2020 20:10 7,5 C 6,1 C 6,1 C 74 % 1027,0 hPa 0,0 l/m 0 min 0 min 0 W/m 12,9 km/h (3 Bft) 97,83 %
30.03.2020 20:12 7,4 C 6,1 C 6,1 C 74 % 1027,0 hPa 0,0 l/m 0 min 0 min 0 W/m 16,1 km/h (3 Bft) 97,87 %
30.03.2020 20:14 7,4 C 6,1 C 6,1 C 74 % 1027,0 hPa 0,0 l/m 0 min 0 min 0 W/m 6,4 km/h (2 Bft) 97,87 %
30.03.2020 20:16 7,4 C 6,1 C 5,6 C 74 % 1027,0 hPa 0,0 l/m 0 min 0 min 0 W/m 12,9 km/h (3 Bft) 95,74 %
30.03.2020 20:18 7,3 C 6,1 C 5,6 C 74 % 1027,0 hPa 0,0 l/m 0 min 0 min 0 W/m 12,9 km/h (3 Bft) 100,00 %
30.03.2020 20:20 7,3 C 6,1 C 5,6 C 74 % 1027,0 hPa 0,0 l/m 0 min 0 min 0 W/m 9,7 km/h (2 Bft) 100,00 %
30.03.2020 20:22 7,3 C 6,1 C 5,6 C 74 % 1027,0 hPa 0,0 l/m 0 min 0 min 0 W/m 9,7 km/h (2 Bft) 97,83 %
30.03.2020 20:24 7,3 C 6,1 C 5,6 C 74 % 1027,0 hPa 0,0 l/m 0 min 0 min 0 W/m 6,4 km/h (2 Bft) 100,00 %
30.03.2020 20:26 7,3 C 6,1 C 5,6 C 74 % 1027,0 hPa 0,0 l/m 0 min 0 min 0 W/m 9,7 km/h (2 Bft) 100,00 %
30.03.2020 20:28 7,2 C 6,1 C 5,6 C 75 % 1027,0 hPa 0,0 l/m 0 min 0 min 0 W/m 9,7 km/h (2 Bft) 97,87 %
30.03.2020 20:30 7,2 C 6,1 C 5,6 C 75 % 1027,0 hPa 0,0 l/m 0 min 0 min 0 W/m 12,9 km/h (3 Bft) 100,00 %
30.03.2020 20:32 7,2 C 6,1 C 5,6 C 75 % 1027,0 hPa 0,0 l/m 0 min 0 min 0 W/m 3,2 km/h (1 Bft) 100,00 %
30.03.2020 20:34 7,2 C 6,1 C 5,6 C 75 % 1027,0 hPa 0,0 l/m 0 min 0 min 0 W/m 16,1 km/h (3 Bft) 100,00 %
30.03.2020 20:36 7,2 C 6,1 C 5,6 C 75 % 1027,1 hPa 0,0 l/m 0 min 0 min 0 W/m 12,9 km/h (3 Bft) 100,00 %
30.03.2020 20:38 7,2 C 6,1 C 5,6 C 75 % 1027,1 hPa 0,0 l/m 0 min 0 min 0 W/m 12,9 km/h (3 Bft) 100,00 %
30.03.2020 20:40 7,1 C 6,1 C 5,6 C 76 % 1027,1 hPa 0,0 l/m 0 min 0 min 0 W/m 22,5 km/h (4 Bft) 100,00 %
30.03.2020 20:42 7,1 C 6,1 C 5,6 C 76 % 1027,1 hPa 0,0 l/m 0 min 0 min 0 W/m 16,1 km/h (3 Bft) 95,74 %
30.03.2020 20:44 7,1 C 6,1 C 5,6 C 77 % 1027,1 hPa 0,0 l/m 0 min 0 min 0 W/m 12,9 km/h (3 Bft) 100,00 %
30.03.2020 20:46 7,1 C 6,1 C 5,6 C 77 % 1027,1 hPa 0,0 l/m 0 min 0 min 0 W/m 9,7 km/h (2 Bft) 100,00 %
30.03.2020 20:48 7,1 C 6,1 C 5,6 C 78 % 1027,1 hPa 0,0 l/m 0 min 0 min 0 W/m 9,7 km/h (2 Bft) 100,00 %
30.03.2020 20:50 7,1 C 5,6 C 5,6 C 78 % 1027,1 hPa 0,0 l/m 0 min 0 min 0 W/m 9,7 km/h (2 Bft) 100,00 %
30.03.2020 20:52 7,0 C 5,6 C 5,6 C 78 % 1027,1 hPa 0,0 l/m 0 min 0 min 0 W/m 12,9 km/h (3 Bft) 100,00 %
30.03.2020 20:54 7,0 C 5,6 C 5,6 C 78 % 1027,1 hPa 0,0 l/m 0 min 0 min 0 W/m 9,7 km/h (2 Bft) 100,00 %
30.03.2020 20:56 6,9 C 5,6 C 5,0 C 79 % 1027,1 hPa 0,0 l/m 0 min 0 min 0 W/m 9,7 km/h (2 Bft) 100,00 %
30.03.2020 20:58 6,9 C 5,6 C 5,0 C 79 % 1027,1 hPa 0,0 l/m 0 min 0 min 0 W/m 12,9 km/h (3 Bft) 100,00 %
30.03.2020 21:00 6,9 C 5,6 C 5,0 C 79 % 1027,1 hPa 0,0 l/m 0 min 0 min 0 W/m 9,7 km/h (2 Bft) 100,00 %
30.03.2020 21:02 6,9 C 5,6 C 5,0 C 79 % 1027,1 hPa 0,0 l/m 0 min 0 min 0 W/m 6,4 km/h (2 Bft) 97,87 %
30.03.2020 21:04 6,8 C 5,6 C 5,0 C 79 % 1027,2 hPa 0,0 l/m 0 min 0 min 0 W/m 16,1 km/h (3 Bft) 100,00 %
30.03.2020 21:06 6,8 C 5,6 C 5,0 C 79 % 1027,2 hPa 0,0 l/m 0 min 0 min 0 W/m 9,7 km/h (2 Bft) 95,74 %
30.03.2020 21:08 6,8 C 5,6 C 5,0 C 79 % 1027,2 hPa 0,0 l/m 0 min 0 min 0 W/m 9,7 km/h (2 Bft) 100,00 %
30.03.2020 21:10 6,8 C 5,6 C 5,0 C 79 % 1027,2 hPa 0,0 l/m 0 min 0 min 0 W/m 9,7 km/h (2 Bft) 100,00 %
30.03.2020 21:12 6,7 C 5,6 C 5,0 C 80 % 1027,2 hPa 0,0 l/m 0 min 0 min 0 W/m 9,7 km/h (2 Bft) 100,00 %
30.03.2020 21:14 6,7 C 5,6 C 5,0 C 80 % 1027,3 hPa 0,0 l/m 0 min 0 min 0 W/m 0,0 km/h (0 Bft) 100,00 %
30.03.2020 21:16 6,7 C 5,6 C 5,0 C 80 % 1027,2 hPa 0,0 l/m 0 min 0 min 0 W/m 0,0 km/h (0 Bft) 100,00 %
30.03.2020 21:18 6,7 C 5,6 C 5,0 C 80 % 1027,2 hPa 0,0 l/m 0 min 0 min 0 W/m 6,4 km/h (2 Bft) 97,87 %
30.03.2020 21:20 6,7 C 5,6 C 5,6 C 80 % 1027,2 hPa 0,0 l/m 0 min 0 min 0 W/m 9,7 km/h (2 Bft) 100,00 %
30.03.2020 21:22 6,6 C 5,6 C 5,6 C 80 % 1027,3 hPa 0,0 l/m 0 min 0 min 0 W/m 6,4 km/h (2 Bft) 100,00 %
30.03.2020 21:24 6,6 C 5,6 C 5,6 C 81 % 1027,2 hPa 0,0 l/m 0 min 0 min 0 W/m 3,2 km/h (1 Bft) 100,00 %
30.03.2020 21:26 6,6 C 5,6 C 5,6 C 81 % 1027,2 hPa 0,0 l/m 0 min 0 min 0 W/m 9,7 km/h (2 Bft) 100,00 %
30.03.2020 21:28 6,6 C 5,6 C 5,0 C 81 % 1027,3 hPa 0,0 l/m 0 min 0 min 0 W/m 12,9 km/h (3 Bft) 100,00 %
30.03.2020 21:30 6,6 C 5,6 C 5,6 C 81 % 1027,2 hPa 0,0 l/m 0 min 0 min 0 W/m 6,4 km/h (2 Bft) 97,87 %
30.03.2020 21:32 6,6 C 5,6 C 5,0 C 81 % 1027,3 hPa 0,0 l/m 0 min 0 min 0 W/m 3,2 km/h (1 Bft) 97,96 %
30.03.2020 21:34 6,6 C 5,6 C 5,0 C 81 % 1027,2 hPa 0,0 l/m 0 min 0 min 0 W/m 12,9 km/h (3 Bft) 100,00 %
30.03.2020 21:36 6,6 C 5,6 C 5,0 C 81 % 1027,2 hPa 0,0 l/m 0 min 0 min 0 W/m 16,1 km/h (3 Bft) 100,00 %
30.03.2020 21:38 6,5 C 5,6 C 5,0 C 81 % 1027,3 hPa 0,0 l/m 0 min 0 min 0 W/m 12,9 km/h (3 Bft) 100,00 %
30.03.2020 21:40 6,5 C 5,6 C 5,0 C 81 % 1027,3 hPa 0,0 l/m 0 min 0 min 0 W/m 3,2 km/h (1 Bft) 97,87 %
30.03.2020 21:42 6,5 C 5,6 C 5,0 C 81 % 1027,4 hPa 0,0 l/m 0 min 0 min 0 W/m 6,4 km/h (2 Bft) 97,87 %
30.03.2020 21:44 6,5 C 5,6 C 5,0 C 81 % 1027,3 hPa 0,0 l/m 0 min 0 min 0 W/m 6,4 km/h (2 Bft) 97,96 %
30.03.2020 21:46 6,5 C 5,6 C 5,0 C 81 % 1027,3 hPa 0,0 l/m 0 min 0 min 0 W/m 3,2 km/h (1 Bft) 97,30 %
30.03.2020 21:48 6,5 C 5,6 C 5,0 C 82 % 1027,3 hPa 0,0 l/m 0 min 0 min 0 W/m 12,9 km/h (3 Bft) 95,74 %
30.03.2020 21:50 6,5 C 5,6 C 5,0 C 82 % 1027,3 hPa 0,0 l/m 0 min 0 min 0 W/m 6,4 km/h (2 Bft) 96,30 %
30.03.2020 21:52 6,5 C 5,6 C 5,0 C 82 % 1027,4 hPa 0,0 l/m 0 min 0 min 0 W/m 0,0 km/h (0 Bft) 98,00 %
30.03.2020 21:54 6,5 C 5,6 C 5,0 C 82 % 1027,4 hPa 0,0 l/m 0 min 0 min 0 W/m 9,7 km/h (2 Bft) 100,00 %
30.03.2020 21:56 6,5 C 5,6 C 5,0 C 82 % 1027,4 hPa 0,0 l/m 0 min 0 min 0 W/m 0,0 km/h (0 Bft) 95,74 %
30.03.2020 21:58 6,5 C 5,6 C 5,0 C 82 % 1027,4 hPa 0,0 l/m 0 min 0 min 0 W/m 6,4 km/h (2 Bft) 97,87 %
30.03.2020 22:00 6,5 C 5,6 C 5,0 C 82 % 1027,5 hPa 0,0 l/m 0 min 0 min 0 W/m 3,2 km/h (1 Bft) 97,87 %
30.03.2020 22:02 6,4 C 5,6 C 5,0 C 82 % 1027,5 hPa 0,0 l/m 0 min 0 min 0 W/m 3,2 km/h (1 Bft) 96,30 %
30.03.2020 22:04 6,4 C 5,6 C 5,0 C 82 % 1027,4 hPa 0,0 l/m 0 min 0 min 0 W/m 3,2 km/h (1 Bft) 97,87 %
30.03.2020 22:06 6,4 C 5,6 C 5,0 C 82 % 1027,4 hPa 0,0 l/m 0 min 0 min 0 W/m 6,4 km/h (2 Bft) 97,83 %
30.03.2020 22:08 6,4 C 5,6 C 5,0 C 82 % 1027,5 hPa 0,0 l/m 0 min 0 min 0 W/m 12,9 km/h (3 Bft) 98,00 %
30.03.2020 22:10 6,4 C 5,6 C 5,0 C 82 % 1027,5 hPa 0,0 l/m 0 min 0 min 0 W/m 3,2 km/h (1 Bft) 97,87 %
30.03.2020 22:12 6,4 C 5,6 C 5,0 C 82 % 1027,5 hPa 0,0 l/m 0 min 0 min 0 W/m 0,0 km/h (0 Bft) 97,30 %
30.03.2020 22:14 6,4 C 5,6 C 5,0 C 82 % 1027,5 hPa 0,0 l/m 0 min 0 min 0 W/m 0,0 km/h (0 Bft) 95,65 %
30.03.2020 22:16 6,4 C 5,6 C 5,0 C 82 % 1027,5 hPa 0,0 l/m 0 min 0 min 0 W/m 0,0 km/h (0 Bft) 93,62 %
30.03.2020 22:18 6,4 C 5,6 C 5,0 C 82 % 1027,4 hPa 0,0 l/m 0 min 0 min 0 W/m 0,0 km/h (0 Bft) 98,15 %
30.03.2020 22:20 6,4 C 5,6 C 5,0 C 82 % 1027,5 hPa 0,0 l/m 0 min 0 min 0 W/m 0,0 km/h (0 Bft) 96,00 %
30.03.2020 22:22 6,4 C 5,6 C 5,0 C 83 % 1027,5 hPa 0,0 l/m 0 min 0 min 0 W/m 0,0 km/h (0 Bft) 97,30 %
30.03.2020 22:24 6,3 C 5,6 C 5,0 C 83 % 1027,4 hPa 0,0 l/m 0 min 0 min 0 W/m 0,0 km/h (0 Bft) 100,00 %
30.03.2020 22:26 6,3 C 5,0 C 5,0 C 82 % 1027,4 hPa 0,0 l/m 0 min 0 min 0 W/m 0,0 km/h (0 Bft) 100,00 %
30.03.2020 22:28 6,3 C 5,0 C 5,0 C 82 % 1027,4 hPa 0,0 l/m 0 min 0 min 0 W/m 3,2 km/h (1 Bft) 100,00 %
30.03.2020 22:30 6,3 C 5,0 C 5,0 C 83 % 1027,5 hPa 0,0 l/m 0 min 0 min 0 W/m 3,2 km/h (1 Bft) 100,00 %
30.03.2020 22:32 6,3 C 5,0 C 5,0 C 83 % 1027,4 hPa 0,0 l/m 0 min 0 min 0 W/m 3,2 km/h (1 Bft) 95,74 %
30.03.2020 22:34 6,3 C 5,0 C 4,4 C 83 % 1027,4 hPa 0,0 l/m 0 min 0 min 0 W/m 0,0 km/h (0 Bft) 97,87 %
30.03.2020 22:36 6,3 C 5,0 C 4,4 C 83 % 1027,5 hPa 0,0 l/m 0 min 0 min 0 W/m 9,7 km/h (2 Bft) 92,31 %
30.03.2020 22:38 6,3 C 5,0 C 4,4 C 83 % 1027,5 hPa 0,0 l/m 0 min 0 min 0 W/m 0,0 km/h (0 Bft) 100,00 %
30.03.2020 22:40 6,2 C 5,0 C 4,4 C 83 % 1027,5 hPa 0,0 l/m 0 min 0 min 0 W/m 12,9 km/h (3 Bft) 100,00 %
30.03.2020 22:42 6,2 C 5,0 C 4,4 C 83 % 1027,5 hPa 0,0 l/m 0 min 0 min 0 W/m 9,7 km/h (2 Bft) 97,83 %
30.03.2020 22:44 6,2 C 5,0 C 4,4 C 83 % 1027,5 hPa 0,0 l/m 0 min 0 min 0 W/m 12,9 km/h (3 Bft) 98,00 %
30.03.2020 22:46 6,2 C 5,0 C 4,4 C 83 % 1027,5 hPa 0,0 l/m 0 min 0 min 0 W/m 3,2 km/h (1 Bft) 97,30 %
30.03.2020 22:48 6,1 C 5,0 C 4,4 C 83 % 1027,6 hPa 0,0 l/m 0 min 0 min 0 W/m 0,0 km/h (0 Bft) 97,87 %
30.03.2020 22:50 6,1 C 5,0 C 4,4 C 83 % 1027,6 hPa 0,0 l/m 0 min 0 min 0 W/m 9,7 km/h (2 Bft) 97,83 %
30.03.2020 22:52 6,1 C 5,0 C 4,4 C 84 % 1027,6 hPa 0,0 l/m 0 min 0 min 0 W/m 12,9 km/h (3 Bft) 96,30 %
30.03.2020 22:54 6,1 C 5,0 C 4,4 C 84 % 1027,6 hPa 0,0 l/m 0 min 0 min 0 W/m 12,9 km/h (3 Bft) 98,00 %
30.03.2020 22:56 6,1 C 5,0 C 4,4 C 84 % 1027,6 hPa 0,0 l/m 0 min 0 min 0 W/m 9,7 km/h (2 Bft) 97,30 %
30.03.2020 22:58 6,1 C 5,0 C 4,4 C 84 % 1027,6 hPa 0,0 l/m 0 min 0 min 0 W/m 19,3 km/h (3 Bft) 97,87 %
30.03.2020 23:00 6,0 C 5,0 C 5,0 C 84 % 1027,6 hPa 0,0 l/m 0 min 0 min 0 W/m 9,7 km/h (2 Bft) 95,65 %
30.03.2020 23:02 6,0 C 5,0 C 5,0 C 84 % 1027,6 hPa 0,0 l/m 0 min 0 min 0 W/m 12,9 km/h (3 Bft) 97,87 %
30.03.2020 23:04 6,0 C 5,0 C 5,0 C 85 % 1027,7 hPa 0,0 l/m 0 min 0 min 0 W/m 19,3 km/h (3 Bft) 98,15 %
30.03.2020 23:06 6,0 C 5,0 C 5,0 C 85 % 1027,7 hPa 0,0 l/m 0 min 0 min 0 W/m 12,9 km/h (3 Bft) 98,00 %
30.03.2020 23:08 6,0 C 5,0 C 5,0 C 85 % 1027,8 hPa 0,0 l/m 0 min 0 min 0 W/m 9,7 km/h (2 Bft) 95,74 %
30.03.2020 23:10 5,9 C 5,0 C 4,4 C 85 % 1027,9 hPa 0,0 l/m 0 min 0 min 0 W/m 9,7 km/h (2 Bft) 100,00 %
30.03.2020 23:12 5,9 C 5,0 C 4,4 C 85 % 1027,9 hPa 0,0 l/m 0 min 2 min 0 W/m 9,7 km/h (2 Bft) 95,65 %
30.03.2020 23:14 5,8 C 4,4 C 4,4 C 85 % 1027,9 hPa 0,0 l/m 0 min 2 min 0 W/m 9,7 km/h (2 Bft) 97,87 %
30.03.2020 23:16 5,8 C 4,4 C 3,9 C 85 % 1028,0 hPa 0,0 l/m 0 min 2 min 0 W/m 9,7 km/h (2 Bft) 95,74 %
30.03.2020 23:18 5,7 C 3,9 C 3,3 C 85 % 1027,9 hPa 0,0 l/m 0 min 2 min 0 W/m 9,7 km/h (2 Bft) 98,15 %
30.03.2020 23:20 5,7 C 3,9 C 3,3 C 85 % 1028,0 hPa 0,0 l/m 0 min 2 min 0 W/m 6,4 km/h (2 Bft) 94,00 %
30.03.2020 23:22 5,6 C 3,3 C 3,3 C 85 % 1028,0 hPa 0,0 l/m 0 min 2 min 0 W/m 3,2 km/h (1 Bft) 93,62 %
30.03.2020 23:24 5,6 C 3,3 C 2,8 C 86 % 1028,0 hPa 0,0 l/m 0 min 2 min 0 W/m 3,2 km/h (1 Bft) 97,22 %
30.03.2020 23:26 5,5 C 3,3 C 2,8 C 86 % 1028,0 hPa 0,0 l/m 0 min 2 min 0 W/m 0,0 km/h (0 Bft) 93,62 %
30.03.2020 23:28 5,5 C 3,3 C 2,8 C 86 % 1028,0 hPa 0,0 l/m 0 min 0 min 0 W/m 3,2 km/h (1 Bft) 95,74 %
30.03.2020 23:30 5,4 C 3,3 C 2,8 C 86 % 1028,0 hPa 0,0 l/m 0 min 2 min 0 W/m 3,2 km/h (1 Bft) 91,49 %
30.03.2020 23:32 5,4 C 3,3 C 2,8 C 86 % 1028,0 hPa 0,0 l/m 0 min 2 min 0 W/m 0,0 km/h (0 Bft) 95,74 %
30.03.2020 23:34 5,3 C 3,3 C 2,8 C 86 % 1028,0 hPa 0,0 l/m 0 min 2 min 0 W/m 0,0 km/h (0 Bft) 97,87 %
30.03.2020 23:36 5,3 C 3,3 C 2,8 C 86 % 1027,9 hPa 0,0 l/m 0 min 0 min 0 W/m 0,0 km/h (0 Bft) 97,83 %
30.03.2020 23:38 5,3 C 3,3 C 2,8 C 87 % 1027,9 hPa 0,0 l/m 0 min 0 min 0 W/m 0,0 km/h (0 Bft) 98,18 %
30.03.2020 23:40 5,2 C 3,3 C 2,8 C 87 % 1028,0 hPa 0,0 l/m 0 min 0 min 0 W/m 0,0 km/h (0 Bft) 97,96 %
30.03.2020 23:42 5,2 C 3,3 C 2,8 C 87 % 1027,9 hPa 0,0 l/m 0 min 0 min 0 W/m 0,0 km/h (0 Bft) 95,74 %
30.03.2020 23:44 5,2 C 3,3 C 2,8 C 87 % 1027,9 hPa 0,0 l/m 0 min 0 min 0 W/m 0,0 km/h (0 Bft) 97,87 %
30.03.2020 23:46 5,1 C 3,3 C 2,8 C 87 % 1027,9 hPa 0,0 l/m 0 min 0 min 0 W/m 0,0 km/h (0 Bft) 97,30 %
30.03.2020 23:48 5,1 C 3,3 C 2,8 C 87 % 1027,9 hPa 0,0 l/m 0 min 2 min 0 W/m 0,0 km/h (0 Bft) 97,83 %
30.03.2020 23:50 5,1 C 3,3 C 2,8 C 87 % 1028,0 hPa 0,0 l/m 0 min 0 min 0 W/m 0,0 km/h (0 Bft) 95,74 %
30.03.2020 23:52 5,1 C 3,3 C 2,8 C 87 % 1028,0 hPa 0,0 l/m 0 min 0 min 0 W/m 0,0 km/h (0 Bft) 95,74 %
30.03.2020 23:54 5,0 C 3,3 C 2,8 C 87 % 1027,9 hPa 0,0 l/m 0 min 0 min 0 W/m 0,0 km/h (0 Bft) 97,87 %
30.03.2020 23:56 5,0 C 3,3 C 2,8 C 88 % 1028,0 hPa 0,0 l/m 0 min 0 min 0 W/m 0,0 km/h (0 Bft) 97,87 %
30.03.2020 23:58 5,0 C 3,3 C 2,8 C 88 % 1028,0 hPa 0,0 l/m 0 min 0 min 0 W/m 0,0 km/h (0 Bft) 97,83 %
_ Min-Zeit 07:58 06:16 06:20 11:32 19:18 - - - - 00:08 00:02
Minimum _ -4,3 C -5,0 C -5,6 C 53 % 1026,8 hPa - - - - 0,0 km/h (0 Bft) 12,50 %
_ Max-Zeit 16:12 14:30 14:30 09:16 00:32 05:32 12:08 23:12 12:00 16:00 00:52
Maximum _ 9,8 C 18,3 C 18,3 C 89 % 1034,3 hPa 0,2 l/m 4 min 2 min 850 W/m 32,2 km/h
N-NW (5 Bft)
100,00 %
Durchschnitt _ 3,4 C 4,2 C 3,0 C 70 % 1030,8 hPa #0,2 l/m #7:40 h #24 min. 292 W/m 6,3 km/h (2 Bft) 96,70 %
© 2020 W. Hausmann